<?xml version="1.0" encoding="UTF-8" standalone="no" ?>
<gpx xmlns="http://www.topografix.com/GPX/1/1" xmlns:xsi="http://www.w3.org/2001/XMLSchema-instance" xsi:schemaLocation="http://www.topografix.com/GPX/1/1 http://www.topografix.com/GPX/1/1/gpx.xsd" version="1.1" creator="VisuGPX - https://www.visugpx.com">
  <metadata>
    <name>Bois de St Martin</name>
    <desc><![CDATA[départ de la mairie de St Martin le Gaillard.
rando niveau moyen.
trés agréable.]]></desc>
  </metadata>
  <trk>
    <name><![CDATA[St martin le gaillard]]></name>
    <trkseg>
      <trkpt lat="49.97808" lon="1.37015">
        <ele>38</ele>
        <time>2011-06-10T12:06:01.000Z</time>
      </trkpt>
      <trkpt lat="49.97804" lon="1.37021">
        <ele>38</ele>
        <time>2011-06-10T12:06:21.000Z</time>
      </trkpt>
      <trkpt lat="49.97776" lon="1.37056">
        <ele>43</ele>
        <time>2011-06-10T12:06:57.000Z</time>
      </trkpt>
      <trkpt lat="49.9778" lon="1.37063">
        <ele>43</ele>
        <time>2011-06-10T12:07:02.000Z</time>
      </trkpt>
      <trkpt lat="49.97785" lon="1.37069">
        <ele>40</ele>
        <time>2011-06-10T12:07:08.000Z</time>
      </trkpt>
      <trkpt lat="49.97794" lon="1.37076">
        <ele>34</ele>
        <time>2011-06-10T12:07:16.000Z</time>
      </trkpt>
      <trkpt lat="49.97804" lon="1.3709">
        <ele>30</ele>
        <time>2011-06-10T12:07:28.000Z</time>
      </trkpt>
      <trkpt lat="49.97808" lon="1.37098">
        <ele>29</ele>
        <time>2011-06-10T12:07:34.000Z</time>
      </trkpt>
      <trkpt lat="49.97813" lon="1.37106">
        <ele>30</ele>
        <time>2011-06-10T12:07:40.000Z</time>
      </trkpt>
      <trkpt lat="49.97823" lon="1.37121">
        <ele>32</ele>
        <time>2011-06-10T12:07:51.000Z</time>
      </trkpt>
      <trkpt lat="49.97834" lon="1.37147">
        <ele>18</ele>
        <time>2011-06-10T12:08:08.000Z</time>
      </trkpt>
      <trkpt lat="49.97841" lon="1.37159">
        <ele>14</ele>
        <time>2011-06-10T12:08:17.000Z</time>
      </trkpt>
      <trkpt lat="49.97849" lon="1.37165">
        <ele>15</ele>
        <time>2011-06-10T12:08:24.000Z</time>
      </trkpt>
      <trkpt lat="49.97867" lon="1.37173">
        <ele>23</ele>
        <time>2011-06-10T12:08:40.000Z</time>
      </trkpt>
      <trkpt lat="49.97902" lon="1.37195">
        <ele>24</ele>
        <time>2011-06-10T12:09:10.000Z</time>
      </trkpt>
      <trkpt lat="49.9791" lon="1.37201">
        <ele>23</ele>
        <time>2011-06-10T12:09:21.000Z</time>
      </trkpt>
      <trkpt lat="49.97913" lon="1.37206">
        <ele>22</ele>
        <time>2011-06-10T12:09:27.000Z</time>
      </trkpt>
      <trkpt lat="49.97921" lon="1.37216">
        <ele>19</ele>
        <time>2011-06-10T12:09:38.000Z</time>
      </trkpt>
      <trkpt lat="49.97936" lon="1.37258">
        <ele>19</ele>
        <time>2011-06-10T12:10:02.000Z</time>
      </trkpt>
      <trkpt lat="49.97939" lon="1.37266">
        <ele>20</ele>
        <time>2011-06-10T12:10:07.000Z</time>
      </trkpt>
      <trkpt lat="49.97946" lon="1.37285">
        <ele>21</ele>
        <time>2011-06-10T12:10:19.000Z</time>
      </trkpt>
      <trkpt lat="49.97957" lon="1.37312">
        <ele>28</ele>
        <time>2011-06-10T12:10:35.000Z</time>
      </trkpt>
      <trkpt lat="49.97961" lon="1.37323">
        <ele>29</ele>
        <time>2011-06-10T12:10:41.000Z</time>
      </trkpt>
      <trkpt lat="49.97967" lon="1.37348">
        <ele>26</ele>
        <time>2011-06-10T12:10:55.000Z</time>
      </trkpt>
      <trkpt lat="49.97973" lon="1.37371">
        <ele>25</ele>
        <time>2011-06-10T12:11:07.000Z</time>
      </trkpt>
      <trkpt lat="49.97974" lon="1.37387">
        <ele>22</ele>
        <time>2011-06-10T12:11:15.000Z</time>
      </trkpt>
      <trkpt lat="49.97974" lon="1.37409">
        <ele>24</ele>
        <time>2011-06-10T12:11:27.000Z</time>
      </trkpt>
      <trkpt lat="49.97974" lon="1.37459">
        <ele>31</ele>
        <time>2011-06-10T12:12:05.000Z</time>
      </trkpt>
      <trkpt lat="49.97976" lon="1.37467">
        <ele>31</ele>
        <time>2011-06-10T12:12:09.000Z</time>
      </trkpt>
      <trkpt lat="49.97991" lon="1.37534">
        <ele>22</ele>
        <time>2011-06-10T12:12:45.000Z</time>
      </trkpt>
      <trkpt lat="49.97991" lon="1.37536">
        <ele>23</ele>
        <time>2011-06-10T12:12:46.000Z</time>
      </trkpt>
      <trkpt lat="49.97993" lon="1.37542">
        <ele>26</ele>
        <time>2011-06-10T12:12:51.000Z</time>
      </trkpt>
      <trkpt lat="49.97996" lon="1.3755">
        <ele>31</ele>
        <time>2011-06-10T12:13:38.000Z</time>
      </trkpt>
      <trkpt lat="49.97998" lon="1.37579">
        <ele>30</ele>
        <time>2011-06-10T12:13:53.000Z</time>
      </trkpt>
      <trkpt lat="49.97997" lon="1.37599">
        <ele>30</ele>
        <time>2011-06-10T12:14:04.000Z</time>
      </trkpt>
      <trkpt lat="49.98002" lon="1.37602">
        <ele>30</ele>
        <time>2011-06-10T12:14:12.000Z</time>
      </trkpt>
      <trkpt lat="49.98008" lon="1.37601">
        <ele>30</ele>
        <time>2011-06-10T12:14:17.000Z</time>
      </trkpt>
      <trkpt lat="49.98014" lon="1.37598">
        <ele>32</ele>
        <time>2011-06-10T12:14:21.000Z</time>
      </trkpt>
      <trkpt lat="49.98022" lon="1.37596">
        <ele>33</ele>
        <time>2011-06-10T12:14:27.000Z</time>
      </trkpt>
      <trkpt lat="49.98028" lon="1.37594">
        <ele>34</ele>
        <time>2011-06-10T12:14:32.000Z</time>
      </trkpt>
      <trkpt lat="49.98036" lon="1.3759">
        <ele>35</ele>
        <time>2011-06-10T12:14:41.000Z</time>
      </trkpt>
      <trkpt lat="49.98051" lon="1.37583">
        <ele>37</ele>
        <time>2011-06-10T12:14:57.000Z</time>
      </trkpt>
      <trkpt lat="49.98067" lon="1.37588">
        <ele>41</ele>
        <time>2011-06-10T12:15:19.000Z</time>
      </trkpt>
      <trkpt lat="49.98071" lon="1.37593">
        <ele>42</ele>
        <time>2011-06-10T12:15:26.000Z</time>
      </trkpt>
      <trkpt lat="49.98079" lon="1.37604">
        <ele>39</ele>
        <time>2011-06-10T12:15:38.000Z</time>
      </trkpt>
      <trkpt lat="49.9809" lon="1.37629">
        <ele>35</ele>
        <time>2011-06-10T12:16:02.000Z</time>
      </trkpt>
      <trkpt lat="49.98108" lon="1.37639">
        <ele>45</ele>
        <time>2011-06-10T12:16:16.000Z</time>
      </trkpt>
      <trkpt lat="49.98134" lon="1.37653">
        <ele>53</ele>
        <time>2011-06-10T12:16:47.000Z</time>
      </trkpt>
      <trkpt lat="49.98155" lon="1.37649">
        <ele>57</ele>
        <time>2011-06-10T12:17:05.000Z</time>
      </trkpt>
      <trkpt lat="49.98182" lon="1.37639">
        <ele>49</ele>
        <time>2011-06-10T12:17:46.000Z</time>
      </trkpt>
      <trkpt lat="49.9819" lon="1.37641">
        <ele>46</ele>
        <time>2011-06-10T12:17:55.000Z</time>
      </trkpt>
      <trkpt lat="49.982" lon="1.37646">
        <ele>49</ele>
        <time>2011-06-10T12:18:09.000Z</time>
      </trkpt>
      <trkpt lat="49.98212" lon="1.37653">
        <ele>53</ele>
        <time>2011-06-10T12:18:21.000Z</time>
      </trkpt>
      <trkpt lat="49.9822" lon="1.37654">
        <ele>58</ele>
        <time>2011-06-10T12:18:33.000Z</time>
      </trkpt>
      <trkpt lat="49.98225" lon="1.37655">
        <ele>61</ele>
        <time>2011-06-10T12:18:39.000Z</time>
      </trkpt>
      <trkpt lat="49.98262" lon="1.37677">
        <ele>65</ele>
        <time>2011-06-10T12:19:20.000Z</time>
      </trkpt>
      <trkpt lat="49.98307" lon="1.37663">
        <ele>71</ele>
        <time>2011-06-10T12:20:03.000Z</time>
      </trkpt>
      <trkpt lat="49.98308" lon="1.37663">
        <ele>71</ele>
        <time>2011-06-10T12:20:04.000Z</time>
      </trkpt>
      <trkpt lat="49.98322" lon="1.37657">
        <ele>72</ele>
        <time>2011-06-10T12:20:19.000Z</time>
      </trkpt>
      <trkpt lat="49.98365" lon="1.37636">
        <ele>79</ele>
        <time>2011-06-10T12:21:04.000Z</time>
      </trkpt>
      <trkpt lat="49.98367" lon="1.37636">
        <ele>80</ele>
        <time>2011-06-10T12:21:05.000Z</time>
      </trkpt>
      <trkpt lat="49.98399" lon="1.37618">
        <ele>85</ele>
        <time>2011-06-10T12:21:48.000Z</time>
      </trkpt>
      <trkpt lat="49.98398" lon="1.37609">
        <ele>81</ele>
        <time>2011-06-10T12:22:19.000Z</time>
      </trkpt>
      <trkpt lat="49.98397" lon="1.37611">
        <ele>92</ele>
        <time>2011-06-10T12:22:56.000Z</time>
      </trkpt>
      <trkpt lat="49.98396" lon="1.37609">
        <ele>89</ele>
        <time>2011-06-10T12:23:22.000Z</time>
      </trkpt>
      <trkpt lat="49.98409" lon="1.37602">
        <ele>87</ele>
        <time>2011-06-10T12:23:37.000Z</time>
      </trkpt>
      <trkpt lat="49.98424" lon="1.376">
        <ele>88</ele>
        <time>2011-06-10T12:23:55.000Z</time>
      </trkpt>
      <trkpt lat="49.98459" lon="1.37593">
        <ele>92</ele>
        <time>2011-06-10T12:24:35.000Z</time>
      </trkpt>
      <trkpt lat="49.98477" lon="1.37594">
        <ele>99</ele>
        <time>2011-06-10T12:24:59.000Z</time>
      </trkpt>
      <trkpt lat="49.98483" lon="1.37599">
        <ele>102</ele>
        <time>2011-06-10T12:25:08.000Z</time>
      </trkpt>
      <trkpt lat="49.98495" lon="1.37609">
        <ele>109</ele>
        <time>2011-06-10T12:25:28.000Z</time>
      </trkpt>
      <trkpt lat="49.985" lon="1.37614">
        <ele>111</ele>
        <time>2011-06-10T12:25:34.000Z</time>
      </trkpt>
      <trkpt lat="49.98518" lon="1.37639">
        <ele>114</ele>
        <time>2011-06-10T12:26:03.000Z</time>
      </trkpt>
      <trkpt lat="49.98525" lon="1.37652">
        <ele>116</ele>
        <time>2011-06-10T12:26:14.000Z</time>
      </trkpt>
      <trkpt lat="49.98531" lon="1.37663">
        <ele>115</ele>
        <time>2011-06-10T12:26:22.000Z</time>
      </trkpt>
      <trkpt lat="49.98537" lon="1.37674">
        <ele>110</ele>
        <time>2011-06-10T12:26:32.000Z</time>
      </trkpt>
      <trkpt lat="49.98547" lon="1.37711">
        <ele>101</ele>
        <time>2011-06-10T12:27:00.000Z</time>
      </trkpt>
      <trkpt lat="49.98555" lon="1.37755">
        <ele>101</ele>
        <time>2011-06-10T12:27:26.000Z</time>
      </trkpt>
      <trkpt lat="49.9856" lon="1.37765">
        <ele>102</ele>
        <time>2011-06-10T12:27:33.000Z</time>
      </trkpt>
      <trkpt lat="49.98575" lon="1.37785">
        <ele>104</ele>
        <time>2011-06-10T12:27:52.000Z</time>
      </trkpt>
      <trkpt lat="49.9859" lon="1.37788">
        <ele>100</ele>
        <time>2011-06-10T12:28:07.000Z</time>
      </trkpt>
      <trkpt lat="49.986" lon="1.37791">
        <ele>101</ele>
        <time>2011-06-10T12:28:17.000Z</time>
      </trkpt>
      <trkpt lat="49.98645" lon="1.37803">
        <ele>99</ele>
        <time>2011-06-10T12:28:57.000Z</time>
      </trkpt>
      <trkpt lat="49.98646" lon="1.37804">
        <ele>99</ele>
        <time>2011-06-10T12:28:58.000Z</time>
      </trkpt>
      <trkpt lat="49.98672" lon="1.37814">
        <ele>96</ele>
        <time>2011-06-10T12:29:27.000Z</time>
      </trkpt>
      <trkpt lat="49.98673" lon="1.37812">
        <ele>95</ele>
        <time>2011-06-10T12:29:36.000Z</time>
      </trkpt>
      <trkpt lat="49.98673" lon="1.3781">
        <ele>98</ele>
        <time>2011-06-10T12:29:46.000Z</time>
      </trkpt>
      <trkpt lat="49.98678" lon="1.37814">
        <ele>100</ele>
        <time>2011-06-10T12:29:52.000Z</time>
      </trkpt>
      <trkpt lat="49.98721" lon="1.37833">
        <ele>105</ele>
        <time>2011-06-10T12:30:34.000Z</time>
      </trkpt>
      <trkpt lat="49.98722" lon="1.37833">
        <ele>105</ele>
        <time>2011-06-10T12:30:35.000Z</time>
      </trkpt>
      <trkpt lat="49.98765" lon="1.37856">
        <ele>102</ele>
        <time>2011-06-10T12:31:16.000Z</time>
      </trkpt>
      <trkpt lat="49.98766" lon="1.37857">
        <ele>102</ele>
        <time>2011-06-10T12:31:17.000Z</time>
      </trkpt>
      <trkpt lat="49.98796" lon="1.37871">
        <ele>103</ele>
        <time>2011-06-10T12:31:48.000Z</time>
      </trkpt>
      <trkpt lat="49.98805" lon="1.37871">
        <ele>103</ele>
        <time>2011-06-10T12:31:58.000Z</time>
      </trkpt>
      <trkpt lat="49.9881" lon="1.37866">
        <ele>101</ele>
        <time>2011-06-10T12:32:05.000Z</time>
      </trkpt>
      <trkpt lat="49.98814" lon="1.37862">
        <ele>95</ele>
        <time>2011-06-10T12:32:14.000Z</time>
      </trkpt>
      <trkpt lat="49.9883" lon="1.37857">
        <ele>90</ele>
        <time>2011-06-10T12:32:37.000Z</time>
      </trkpt>
      <trkpt lat="49.98839" lon="1.3786">
        <ele>90</ele>
        <time>2011-06-10T12:32:45.000Z</time>
      </trkpt>
      <trkpt lat="49.98843" lon="1.37865">
        <ele>86</ele>
        <time>2011-06-10T12:32:51.000Z</time>
      </trkpt>
      <trkpt lat="49.98847" lon="1.37871">
        <ele>83</ele>
        <time>2011-06-10T12:32:57.000Z</time>
      </trkpt>
      <trkpt lat="49.98853" lon="1.37868">
        <ele>100</ele>
        <time>2011-06-10T12:33:27.000Z</time>
      </trkpt>
      <trkpt lat="49.98849" lon="1.37875">
        <ele>96</ele>
        <time>2011-06-10T12:33:47.000Z</time>
      </trkpt>
      <trkpt lat="49.98851" lon="1.37889">
        <ele>98</ele>
        <time>2011-06-10T12:33:56.000Z</time>
      </trkpt>
      <trkpt lat="49.98852" lon="1.37903">
        <ele>99</ele>
        <time>2011-06-10T12:34:04.000Z</time>
      </trkpt>
      <trkpt lat="49.98859" lon="1.37949">
        <ele>104</ele>
        <time>2011-06-10T12:34:30.000Z</time>
      </trkpt>
      <trkpt lat="49.98861" lon="1.3796">
        <ele>102</ele>
        <time>2011-06-10T12:34:36.000Z</time>
      </trkpt>
      <trkpt lat="49.98877" lon="1.37989">
        <ele>102</ele>
        <time>2011-06-10T12:34:57.000Z</time>
      </trkpt>
      <trkpt lat="49.98889" lon="1.38">
        <ele>103</ele>
        <time>2011-06-10T12:35:09.000Z</time>
      </trkpt>
      <trkpt lat="49.98895" lon="1.38003">
        <ele>104</ele>
        <time>2011-06-10T12:35:14.000Z</time>
      </trkpt>
      <trkpt lat="49.98914" lon="1.38017">
        <ele>103</ele>
        <time>2011-06-10T12:35:31.000Z</time>
      </trkpt>
      <trkpt lat="49.98917" lon="1.38023">
        <ele>102</ele>
        <time>2011-06-10T12:35:35.000Z</time>
      </trkpt>
      <trkpt lat="49.98933" lon="1.38071">
        <ele>102</ele>
        <time>2011-06-10T12:36:05.000Z</time>
      </trkpt>
      <trkpt lat="49.98935" lon="1.38085">
        <ele>103</ele>
        <time>2011-06-10T12:36:36.000Z</time>
      </trkpt>
      <trkpt lat="49.98936" lon="1.38092">
        <ele>108</ele>
        <time>2011-06-10T12:36:50.000Z</time>
      </trkpt>
      <trkpt lat="49.98952" lon="1.38109">
        <ele>100</ele>
        <time>2011-06-10T12:37:32.000Z</time>
      </trkpt>
      <trkpt lat="49.98959" lon="1.38115">
        <ele>100</ele>
        <time>2011-06-10T12:37:39.000Z</time>
      </trkpt>
      <trkpt lat="49.98996" lon="1.38157">
        <ele>105</ele>
        <time>2011-06-10T12:38:38.000Z</time>
      </trkpt>
      <trkpt lat="49.98997" lon="1.38158">
        <ele>105</ele>
        <time>2011-06-10T12:38:39.000Z</time>
      </trkpt>
      <trkpt lat="49.9901" lon="1.38173">
        <ele>107</ele>
        <time>2011-06-10T12:38:51.000Z</time>
      </trkpt>
      <trkpt lat="49.99014" lon="1.38183">
        <ele>109</ele>
        <time>2011-06-10T12:39:13.000Z</time>
      </trkpt>
      <trkpt lat="49.99019" lon="1.38206">
        <ele>107</ele>
        <time>2011-06-10T12:39:39.000Z</time>
      </trkpt>
      <trkpt lat="49.99029" lon="1.38227">
        <ele>104</ele>
        <time>2011-06-10T12:40:02.000Z</time>
      </trkpt>
      <trkpt lat="49.9903" lon="1.38235">
        <ele>99</ele>
        <time>2011-06-10T12:40:09.000Z</time>
      </trkpt>
      <trkpt lat="49.99033" lon="1.38253">
        <ele>100</ele>
        <time>2011-06-10T12:40:21.000Z</time>
      </trkpt>
      <trkpt lat="49.99035" lon="1.38262">
        <ele>100</ele>
        <time>2011-06-10T12:40:26.000Z</time>
      </trkpt>
      <trkpt lat="49.99044" lon="1.38282">
        <ele>103</ele>
        <time>2011-06-10T12:40:37.000Z</time>
      </trkpt>
      <trkpt lat="49.99059" lon="1.38328">
        <ele>103</ele>
        <time>2011-06-10T12:41:04.000Z</time>
      </trkpt>
      <trkpt lat="49.99065" lon="1.38343">
        <ele>103</ele>
        <time>2011-06-10T12:41:14.000Z</time>
      </trkpt>
      <trkpt lat="49.99067" lon="1.3835">
        <ele>102</ele>
        <time>2011-06-10T12:41:19.000Z</time>
      </trkpt>
      <trkpt lat="49.99072" lon="1.38364">
        <ele>102</ele>
        <time>2011-06-10T12:41:28.000Z</time>
      </trkpt>
      <trkpt lat="49.99083" lon="1.38401">
        <ele>100</ele>
        <time>2011-06-10T12:42:06.000Z</time>
      </trkpt>
      <trkpt lat="49.99088" lon="1.38417">
        <ele>104</ele>
        <time>2011-06-10T12:42:17.000Z</time>
      </trkpt>
      <trkpt lat="49.99088" lon="1.38489">
        <ele>103</ele>
        <time>2011-06-10T12:42:57.000Z</time>
      </trkpt>
      <trkpt lat="49.99088" lon="1.3849">
        <ele>103</ele>
        <time>2011-06-10T12:42:58.000Z</time>
      </trkpt>
      <trkpt lat="49.99087" lon="1.38498">
        <ele>102</ele>
        <time>2011-06-10T12:43:03.000Z</time>
      </trkpt>
      <trkpt lat="49.99086" lon="1.38507">
        <ele>99</ele>
        <time>2011-06-10T12:43:09.000Z</time>
      </trkpt>
      <trkpt lat="49.99083" lon="1.38528">
        <ele>96</ele>
        <time>2011-06-10T12:43:23.000Z</time>
      </trkpt>
      <trkpt lat="49.99088" lon="1.38594">
        <ele>104</ele>
        <time>2011-06-10T12:44:01.000Z</time>
      </trkpt>
      <trkpt lat="49.99088" lon="1.38618">
        <ele>104</ele>
        <time>2011-06-10T12:44:18.000Z</time>
      </trkpt>
      <trkpt lat="49.9909" lon="1.38657">
        <ele>104</ele>
        <time>2011-06-10T12:44:39.000Z</time>
      </trkpt>
      <trkpt lat="49.99091" lon="1.38676">
        <ele>104</ele>
        <time>2011-06-10T12:44:50.000Z</time>
      </trkpt>
      <trkpt lat="49.99092" lon="1.38716">
        <ele>104</ele>
        <time>2011-06-10T12:45:12.000Z</time>
      </trkpt>
      <trkpt lat="49.99089" lon="1.38728">
        <ele>105</ele>
        <time>2011-06-10T12:45:19.000Z</time>
      </trkpt>
      <trkpt lat="49.99085" lon="1.38734">
        <ele>106</ele>
        <time>2011-06-10T12:45:24.000Z</time>
      </trkpt>
      <trkpt lat="49.99078" lon="1.38739">
        <ele>106</ele>
        <time>2011-06-10T12:45:33.000Z</time>
      </trkpt>
      <trkpt lat="49.99033" lon="1.38757">
        <ele>108</ele>
        <time>2011-06-10T12:46:14.000Z</time>
      </trkpt>
      <trkpt lat="49.99032" lon="1.38757">
        <ele>108</ele>
        <time>2011-06-10T12:46:15.000Z</time>
      </trkpt>
      <trkpt lat="49.98989" lon="1.38777">
        <ele>108</ele>
        <time>2011-06-10T12:46:56.000Z</time>
      </trkpt>
      <trkpt lat="49.98988" lon="1.38778">
        <ele>108</ele>
        <time>2011-06-10T12:46:57.000Z</time>
      </trkpt>
      <trkpt lat="49.98945" lon="1.38798">
        <ele>111</ele>
        <time>2011-06-10T12:47:35.000Z</time>
      </trkpt>
      <trkpt lat="49.98943" lon="1.38799">
        <ele>111</ele>
        <time>2011-06-10T12:47:36.000Z</time>
      </trkpt>
      <trkpt lat="49.989" lon="1.3882">
        <ele>112</ele>
        <time>2011-06-10T12:48:17.000Z</time>
      </trkpt>
      <trkpt lat="49.98899" lon="1.3882">
        <ele>112</ele>
        <time>2011-06-10T12:48:18.000Z</time>
      </trkpt>
      <trkpt lat="49.98855" lon="1.38842">
        <ele>113</ele>
        <time>2011-06-10T12:48:57.000Z</time>
      </trkpt>
      <trkpt lat="49.98854" lon="1.38843">
        <ele>113</ele>
        <time>2011-06-10T12:48:58.000Z</time>
      </trkpt>
      <trkpt lat="49.9885" lon="1.38846">
        <ele>113</ele>
        <time>2011-06-10T12:49:03.000Z</time>
      </trkpt>
      <trkpt lat="49.98806" lon="1.38867">
        <ele>116</ele>
        <time>2011-06-10T12:49:43.000Z</time>
      </trkpt>
      <trkpt lat="49.98805" lon="1.38868">
        <ele>116</ele>
        <time>2011-06-10T12:49:44.000Z</time>
      </trkpt>
      <trkpt lat="49.98776" lon="1.38886">
        <ele>114</ele>
        <time>2011-06-10T12:50:40.000Z</time>
      </trkpt>
      <trkpt lat="49.98754" lon="1.38893">
        <ele>112</ele>
        <time>2011-06-10T12:51:12.000Z</time>
      </trkpt>
      <trkpt lat="49.98709" lon="1.38912">
        <ele>116</ele>
        <time>2011-06-10T12:51:50.000Z</time>
      </trkpt>
      <trkpt lat="49.98708" lon="1.38916">
        <ele>116</ele>
        <time>2011-06-10T12:51:51.000Z</time>
      </trkpt>
      <trkpt lat="49.98704" lon="1.3892">
        <ele>114</ele>
        <time>2011-06-10T12:51:55.000Z</time>
      </trkpt>
      <trkpt lat="49.9866" lon="1.38939">
        <ele>119</ele>
        <time>2011-06-10T12:52:34.000Z</time>
      </trkpt>
      <trkpt lat="49.98659" lon="1.3894">
        <ele>119</ele>
        <time>2011-06-10T12:52:35.000Z</time>
      </trkpt>
      <trkpt lat="49.98616" lon="1.38962">
        <ele>121</ele>
        <time>2011-06-10T12:53:14.000Z</time>
      </trkpt>
      <trkpt lat="49.98615" lon="1.38962">
        <ele>121</ele>
        <time>2011-06-10T12:53:15.000Z</time>
      </trkpt>
      <trkpt lat="49.98571" lon="1.38983">
        <ele>123</ele>
        <time>2011-06-10T12:53:54.000Z</time>
      </trkpt>
      <trkpt lat="49.9857" lon="1.38984">
        <ele>123</ele>
        <time>2011-06-10T12:53:55.000Z</time>
      </trkpt>
      <trkpt lat="49.98541" lon="1.38999">
        <ele>124</ele>
        <time>2011-06-10T12:54:21.000Z</time>
      </trkpt>
      <trkpt lat="49.98499" lon="1.39022">
        <ele>121</ele>
        <time>2011-06-10T12:55:05.000Z</time>
      </trkpt>
      <trkpt lat="49.98497" lon="1.39022">
        <ele>121</ele>
        <time>2011-06-10T12:55:06.000Z</time>
      </trkpt>
      <trkpt lat="49.98454" lon="1.39043">
        <ele>119</ele>
        <time>2011-06-10T12:55:48.000Z</time>
      </trkpt>
      <trkpt lat="49.98452" lon="1.39044">
        <ele>119</ele>
        <time>2011-06-10T12:55:49.000Z</time>
      </trkpt>
      <trkpt lat="49.9841" lon="1.39066">
        <ele>116</ele>
        <time>2011-06-10T12:56:30.000Z</time>
      </trkpt>
      <trkpt lat="49.98409" lon="1.39067">
        <ele>116</ele>
        <time>2011-06-10T12:56:31.000Z</time>
      </trkpt>
      <trkpt lat="49.98365" lon="1.39087">
        <ele>115</ele>
        <time>2011-06-10T12:57:11.000Z</time>
      </trkpt>
      <trkpt lat="49.98364" lon="1.39088">
        <ele>115</ele>
        <time>2011-06-10T12:57:12.000Z</time>
      </trkpt>
      <trkpt lat="49.98344" lon="1.39098">
        <ele>114</ele>
        <time>2011-06-10T12:57:30.000Z</time>
      </trkpt>
      <trkpt lat="49.98306" lon="1.39114">
        <ele>111</ele>
        <time>2011-06-10T12:58:05.000Z</time>
      </trkpt>
      <trkpt lat="49.98301" lon="1.39118">
        <ele>108</ele>
        <time>2011-06-10T12:58:10.000Z</time>
      </trkpt>
      <trkpt lat="49.98298" lon="1.39131">
        <ele>106</ele>
        <time>2011-06-10T12:58:19.000Z</time>
      </trkpt>
      <trkpt lat="49.98295" lon="1.39148">
        <ele>107</ele>
        <time>2011-06-10T12:58:29.000Z</time>
      </trkpt>
      <trkpt lat="49.9829" lon="1.39159">
        <ele>106</ele>
        <time>2011-06-10T12:58:37.000Z</time>
      </trkpt>
      <trkpt lat="49.98283" lon="1.39168">
        <ele>104</ele>
        <time>2011-06-10T12:58:46.000Z</time>
      </trkpt>
      <trkpt lat="49.98277" lon="1.39172">
        <ele>101</ele>
        <time>2011-06-10T12:58:52.000Z</time>
      </trkpt>
      <trkpt lat="49.98267" lon="1.39173">
        <ele>106</ele>
        <time>2011-06-10T12:59:13.000Z</time>
      </trkpt>
      <trkpt lat="49.98263" lon="1.3917">
        <ele>111</ele>
        <time>2011-06-10T12:59:21.000Z</time>
      </trkpt>
      <trkpt lat="49.98257" lon="1.39162">
        <ele>114</ele>
        <time>2011-06-10T12:59:36.000Z</time>
      </trkpt>
      <trkpt lat="49.98254" lon="1.3915">
        <ele>118</ele>
        <time>2011-06-10T12:59:50.000Z</time>
      </trkpt>
      <trkpt lat="49.98251" lon="1.3914">
        <ele>119</ele>
        <time>2011-06-10T12:59:59.000Z</time>
      </trkpt>
      <trkpt lat="49.98238" lon="1.39115">
        <ele>114</ele>
        <time>2011-06-10T13:00:21.000Z</time>
      </trkpt>
      <trkpt lat="49.98225" lon="1.39111">
        <ele>114</ele>
        <time>2011-06-10T13:00:35.000Z</time>
      </trkpt>
      <trkpt lat="49.98204" lon="1.39116">
        <ele>111</ele>
        <time>2011-06-10T13:00:53.000Z</time>
      </trkpt>
      <trkpt lat="49.9817" lon="1.39118">
        <ele>111</ele>
        <time>2011-06-10T13:01:38.000Z</time>
      </trkpt>
      <trkpt lat="49.98158" lon="1.39108">
        <ele>116</ele>
        <time>2011-06-10T13:01:51.000Z</time>
      </trkpt>
      <trkpt lat="49.9815" lon="1.39101">
        <ele>115</ele>
        <time>2011-06-10T13:02:01.000Z</time>
      </trkpt>
      <trkpt lat="49.98125" lon="1.3909">
        <ele>112</ele>
        <time>2011-06-10T13:02:24.000Z</time>
      </trkpt>
      <trkpt lat="49.98078" lon="1.39093">
        <ele>108</ele>
        <time>2011-06-10T13:03:06.000Z</time>
      </trkpt>
      <trkpt lat="49.98076" lon="1.39093">
        <ele>107</ele>
        <time>2011-06-10T13:03:07.000Z</time>
      </trkpt>
      <trkpt lat="49.98066" lon="1.39097">
        <ele>106</ele>
        <time>2011-06-10T13:03:14.000Z</time>
      </trkpt>
      <trkpt lat="49.98035" lon="1.39113">
        <ele>108</ele>
        <time>2011-06-10T13:03:42.000Z</time>
      </trkpt>
      <trkpt lat="49.98028" lon="1.39111">
        <ele>114</ele>
        <time>2011-06-10T13:03:55.000Z</time>
      </trkpt>
      <trkpt lat="49.98018" lon="1.39113">
        <ele>115</ele>
        <time>2011-06-10T13:04:07.000Z</time>
      </trkpt>
      <trkpt lat="49.97984" lon="1.39112">
        <ele>117</ele>
        <time>2011-06-10T13:04:38.000Z</time>
      </trkpt>
      <trkpt lat="49.97981" lon="1.39103">
        <ele>113</ele>
        <time>2011-06-10T13:04:48.000Z</time>
      </trkpt>
      <trkpt lat="49.97976" lon="1.3908">
        <ele>109</ele>
        <time>2011-06-10T13:05:06.000Z</time>
      </trkpt>
      <trkpt lat="49.97965" lon="1.39051">
        <ele>115</ele>
        <time>2011-06-10T13:05:30.000Z</time>
      </trkpt>
      <trkpt lat="49.97962" lon="1.39042">
        <ele>117</ele>
        <time>2011-06-10T13:05:38.000Z</time>
      </trkpt>
      <trkpt lat="49.97954" lon="1.39033">
        <ele>122</ele>
        <time>2011-06-10T13:05:54.000Z</time>
      </trkpt>
      <trkpt lat="49.97943" lon="1.39021">
        <ele>124</ele>
        <time>2011-06-10T13:06:08.000Z</time>
      </trkpt>
      <trkpt lat="49.97913" lon="1.39009">
        <ele>118</ele>
        <time>2011-06-10T13:06:37.000Z</time>
      </trkpt>
      <trkpt lat="49.97906" lon="1.39002">
        <ele>121</ele>
        <time>2011-06-10T13:06:45.000Z</time>
      </trkpt>
      <trkpt lat="49.97902" lon="1.38998">
        <ele>123</ele>
        <time>2011-06-10T13:06:56.000Z</time>
      </trkpt>
      <trkpt lat="49.97897" lon="1.38991">
        <ele>124</ele>
        <time>2011-06-10T13:07:01.000Z</time>
      </trkpt>
      <trkpt lat="49.97889" lon="1.38984">
        <ele>125</ele>
        <time>2011-06-10T13:07:17.000Z</time>
      </trkpt>
      <trkpt lat="49.97883" lon="1.38979">
        <ele>127</ele>
        <time>2011-06-10T13:07:27.000Z</time>
      </trkpt>
      <trkpt lat="49.97875" lon="1.3898">
        <ele>127</ele>
        <time>2011-06-10T13:07:41.000Z</time>
      </trkpt>
      <trkpt lat="49.97862" lon="1.38989">
        <ele>125</ele>
        <time>2011-06-10T13:08:05.000Z</time>
      </trkpt>
      <trkpt lat="49.97853" lon="1.39014">
        <ele>121</ele>
        <time>2011-06-10T13:08:35.000Z</time>
      </trkpt>
      <trkpt lat="49.97849" lon="1.39021">
        <ele>115</ele>
        <time>2011-06-10T13:08:58.000Z</time>
      </trkpt>
      <trkpt lat="49.97845" lon="1.3903">
        <ele>113</ele>
        <time>2011-06-10T13:09:12.000Z</time>
      </trkpt>
      <trkpt lat="49.97838" lon="1.39046">
        <ele>114</ele>
        <time>2011-06-10T13:09:30.000Z</time>
      </trkpt>
      <trkpt lat="49.97824" lon="1.39065">
        <ele>118</ele>
        <time>2011-06-10T13:09:58.000Z</time>
      </trkpt>
      <trkpt lat="49.97822" lon="1.39071">
        <ele>120</ele>
        <time>2011-06-10T13:10:15.000Z</time>
      </trkpt>
      <trkpt lat="49.97815" lon="1.39093">
        <ele>109</ele>
        <time>2011-06-10T13:10:31.000Z</time>
      </trkpt>
      <trkpt lat="49.97808" lon="1.39104">
        <ele>104</ele>
        <time>2011-06-10T13:10:44.000Z</time>
      </trkpt>
      <trkpt lat="49.97801" lon="1.3912">
        <ele>98</ele>
        <time>2011-06-10T13:10:55.000Z</time>
      </trkpt>
      <trkpt lat="49.97794" lon="1.39134">
        <ele>94</ele>
        <time>2011-06-10T13:11:09.000Z</time>
      </trkpt>
      <trkpt lat="49.97789" lon="1.39153">
        <ele>102</ele>
        <time>2011-06-10T13:11:22.000Z</time>
      </trkpt>
      <trkpt lat="49.97786" lon="1.39169">
        <ele>104</ele>
        <time>2011-06-10T13:11:31.000Z</time>
      </trkpt>
      <trkpt lat="49.97778" lon="1.3919">
        <ele>111</ele>
        <time>2011-06-10T13:11:43.000Z</time>
      </trkpt>
      <trkpt lat="49.97774" lon="1.39196">
        <ele>111</ele>
        <time>2011-06-10T13:11:49.000Z</time>
      </trkpt>
      <trkpt lat="49.9777" lon="1.39204">
        <ele>111</ele>
        <time>2011-06-10T13:11:52.000Z</time>
      </trkpt>
      <trkpt lat="49.97767" lon="1.3921">
        <ele>111</ele>
        <time>2011-06-10T13:11:58.000Z</time>
      </trkpt>
      <trkpt lat="49.97751" lon="1.39243">
        <ele>105</ele>
        <time>2011-06-10T13:12:22.000Z</time>
      </trkpt>
      <trkpt lat="49.97736" lon="1.39271">
        <ele>102</ele>
        <time>2011-06-10T13:12:47.000Z</time>
      </trkpt>
      <trkpt lat="49.97733" lon="1.39284">
        <ele>110</ele>
        <time>2011-06-10T13:12:54.000Z</time>
      </trkpt>
      <trkpt lat="49.97729" lon="1.39293">
        <ele>109</ele>
        <time>2011-06-10T13:13:03.000Z</time>
      </trkpt>
      <trkpt lat="49.97721" lon="1.39321">
        <ele>112</ele>
        <time>2011-06-10T13:13:22.000Z</time>
      </trkpt>
      <trkpt lat="49.97716" lon="1.39334">
        <ele>115</ele>
        <time>2011-06-10T13:13:33.000Z</time>
      </trkpt>
      <trkpt lat="49.97714" lon="1.39347">
        <ele>114</ele>
        <time>2011-06-10T13:13:41.000Z</time>
      </trkpt>
      <trkpt lat="49.97707" lon="1.39362">
        <ele>112</ele>
        <time>2011-06-10T13:13:49.000Z</time>
      </trkpt>
      <trkpt lat="49.97694" lon="1.3939">
        <ele>111</ele>
        <time>2011-06-10T13:14:08.000Z</time>
      </trkpt>
      <trkpt lat="49.9769" lon="1.394">
        <ele>110</ele>
        <time>2011-06-10T13:14:16.000Z</time>
      </trkpt>
      <trkpt lat="49.97679" lon="1.39427">
        <ele>112</ele>
        <time>2011-06-10T13:14:36.000Z</time>
      </trkpt>
      <trkpt lat="49.97672" lon="1.39447">
        <ele>117</ele>
        <time>2011-06-10T13:14:49.000Z</time>
      </trkpt>
      <trkpt lat="49.97661" lon="1.39472">
        <ele>111</ele>
        <time>2011-06-10T13:15:07.000Z</time>
      </trkpt>
      <trkpt lat="49.97657" lon="1.39486">
        <ele>111</ele>
        <time>2011-06-10T13:15:17.000Z</time>
      </trkpt>
      <trkpt lat="49.97647" lon="1.39512">
        <ele>115</ele>
        <time>2011-06-10T13:15:37.000Z</time>
      </trkpt>
      <trkpt lat="49.97641" lon="1.39526">
        <ele>112</ele>
        <time>2011-06-10T13:15:48.000Z</time>
      </trkpt>
      <trkpt lat="49.97638" lon="1.39532">
        <ele>113</ele>
        <time>2011-06-10T13:15:56.000Z</time>
      </trkpt>
      <trkpt lat="49.97633" lon="1.39543">
        <ele>111</ele>
        <time>2011-06-10T13:16:06.000Z</time>
      </trkpt>
      <trkpt lat="49.97623" lon="1.39558">
        <ele>100</ele>
        <time>2011-06-10T13:16:18.000Z</time>
      </trkpt>
      <trkpt lat="49.97619" lon="1.3957">
        <ele>96</ele>
        <time>2011-06-10T13:16:28.000Z</time>
      </trkpt>
      <trkpt lat="49.97617" lon="1.39586">
        <ele>100</ele>
        <time>2011-06-10T13:16:41.000Z</time>
      </trkpt>
      <trkpt lat="49.97597" lon="1.39649">
        <ele>112</ele>
        <time>2011-06-10T13:17:27.000Z</time>
      </trkpt>
      <trkpt lat="49.97597" lon="1.39649">
        <ele>112</ele>
        <time>2011-06-10T13:17:28.000Z</time>
      </trkpt>
      <trkpt lat="49.97589" lon="1.39671">
        <ele>111</ele>
        <time>2011-06-10T13:17:51.000Z</time>
      </trkpt>
      <trkpt lat="49.97583" lon="1.39681">
        <ele>114</ele>
        <time>2011-06-10T13:18:11.000Z</time>
      </trkpt>
      <trkpt lat="49.97578" lon="1.3969">
        <ele>112</ele>
        <time>2011-06-10T13:18:20.000Z</time>
      </trkpt>
      <trkpt lat="49.97575" lon="1.39699">
        <ele>108</ele>
        <time>2011-06-10T13:18:31.000Z</time>
      </trkpt>
      <trkpt lat="49.97571" lon="1.39709">
        <ele>103</ele>
        <time>2011-06-10T13:18:46.000Z</time>
      </trkpt>
      <trkpt lat="49.97567" lon="1.3972">
        <ele>101</ele>
        <time>2011-06-10T13:18:59.000Z</time>
      </trkpt>
      <trkpt lat="49.97556" lon="1.39745">
        <ele>95</ele>
        <time>2011-06-10T13:19:33.000Z</time>
      </trkpt>
      <trkpt lat="49.97553" lon="1.39752">
        <ele>96</ele>
        <time>2011-06-10T13:19:40.000Z</time>
      </trkpt>
      <trkpt lat="49.9755" lon="1.39762">
        <ele>98</ele>
        <time>2011-06-10T13:19:49.000Z</time>
      </trkpt>
      <trkpt lat="49.97547" lon="1.39772">
        <ele>97</ele>
        <time>2011-06-10T13:20:02.000Z</time>
      </trkpt>
      <trkpt lat="49.97534" lon="1.3981">
        <ele>82</ele>
        <time>2011-06-10T13:20:50.000Z</time>
      </trkpt>
      <trkpt lat="49.97532" lon="1.39816">
        <ele>79</ele>
        <time>2011-06-10T13:21:20.000Z</time>
      </trkpt>
      <trkpt lat="49.97532" lon="1.39827">
        <ele>81</ele>
        <time>2011-06-10T13:22:11.000Z</time>
      </trkpt>
      <trkpt lat="49.97529" lon="1.39837">
        <ele>79</ele>
        <time>2011-06-10T13:22:23.000Z</time>
      </trkpt>
      <trkpt lat="49.97524" lon="1.39845">
        <ele>78</ele>
        <time>2011-06-10T13:22:33.000Z</time>
      </trkpt>
      <trkpt lat="49.97515" lon="1.39863">
        <ele>73</ele>
        <time>2011-06-10T13:23:00.000Z</time>
      </trkpt>
      <trkpt lat="49.97491" lon="1.39923">
        <ele>76</ele>
        <time>2011-06-10T13:23:46.000Z</time>
      </trkpt>
      <trkpt lat="49.9749" lon="1.39923">
        <ele>77</ele>
        <time>2011-06-10T13:23:47.000Z</time>
      </trkpt>
      <trkpt lat="49.97469" lon="1.39965">
        <ele>79</ele>
        <time>2011-06-10T13:24:21.000Z</time>
      </trkpt>
      <trkpt lat="49.97462" lon="1.39982">
        <ele>86</ele>
        <time>2011-06-10T13:24:39.000Z</time>
      </trkpt>
      <trkpt lat="49.97459" lon="1.39989">
        <ele>90</ele>
        <time>2011-06-10T13:24:46.000Z</time>
      </trkpt>
      <trkpt lat="49.97452" lon="1.40004">
        <ele>96</ele>
        <time>2011-06-10T13:24:59.000Z</time>
      </trkpt>
      <trkpt lat="49.97438" lon="1.40035">
        <ele>100</ele>
        <time>2011-06-10T13:25:36.000Z</time>
      </trkpt>
      <trkpt lat="49.97432" lon="1.40067">
        <ele>100</ele>
        <time>2011-06-10T13:26:04.000Z</time>
      </trkpt>
      <trkpt lat="49.97429" lon="1.40075">
        <ele>99</ele>
        <time>2011-06-10T13:26:10.000Z</time>
      </trkpt>
      <trkpt lat="49.97417" lon="1.40101">
        <ele>99</ele>
        <time>2011-06-10T13:26:34.000Z</time>
      </trkpt>
      <trkpt lat="49.97404" lon="1.40122">
        <ele>103</ele>
        <time>2011-06-10T13:26:58.000Z</time>
      </trkpt>
      <trkpt lat="49.97383" lon="1.40159">
        <ele>101</ele>
        <time>2011-06-10T13:27:31.000Z</time>
      </trkpt>
      <trkpt lat="49.97379" lon="1.40169">
        <ele>102</ele>
        <time>2011-06-10T13:27:41.000Z</time>
      </trkpt>
      <trkpt lat="49.97358" lon="1.40231">
        <ele>114</ele>
        <time>2011-06-10T13:28:33.000Z</time>
      </trkpt>
      <trkpt lat="49.97357" lon="1.40232">
        <ele>114</ele>
        <time>2011-06-10T13:28:34.000Z</time>
      </trkpt>
      <trkpt lat="49.97356" lon="1.40233">
        <ele>114</ele>
        <time>2011-06-10T13:28:35.000Z</time>
      </trkpt>
      <trkpt lat="49.97345" lon="1.40267">
        <ele>115</ele>
        <time>2011-06-10T13:29:02.000Z</time>
      </trkpt>
      <trkpt lat="49.9734" lon="1.40276">
        <ele>112</ele>
        <time>2011-06-10T13:29:09.000Z</time>
      </trkpt>
      <trkpt lat="49.97337" lon="1.40282">
        <ele>109</ele>
        <time>2011-06-10T13:29:14.000Z</time>
      </trkpt>
      <trkpt lat="49.97325" lon="1.40314">
        <ele>113</ele>
        <time>2011-06-10T13:29:37.000Z</time>
      </trkpt>
      <trkpt lat="49.9732" lon="1.40326">
        <ele>114</ele>
        <time>2011-06-10T13:29:45.000Z</time>
      </trkpt>
      <trkpt lat="49.97313" lon="1.40342">
        <ele>115</ele>
        <time>2011-06-10T13:29:57.000Z</time>
      </trkpt>
      <trkpt lat="49.97289" lon="1.40402">
        <ele>118</ele>
        <time>2011-06-10T13:30:41.000Z</time>
      </trkpt>
      <trkpt lat="49.97289" lon="1.40403">
        <ele>118</ele>
        <time>2011-06-10T13:30:42.000Z</time>
      </trkpt>
      <trkpt lat="49.9728" lon="1.40427">
        <ele>117</ele>
        <time>2011-06-10T13:31:00.000Z</time>
      </trkpt>
      <trkpt lat="49.97256" lon="1.40488">
        <ele>116</ele>
        <time>2011-06-10T13:31:45.000Z</time>
      </trkpt>
      <trkpt lat="49.97255" lon="1.4049">
        <ele>116</ele>
        <time>2011-06-10T13:31:46.000Z</time>
      </trkpt>
      <trkpt lat="49.97251" lon="1.40502">
        <ele>117</ele>
        <time>2011-06-10T13:31:55.000Z</time>
      </trkpt>
      <trkpt lat="49.97249" lon="1.40509">
        <ele>119</ele>
        <time>2011-06-10T13:32:06.000Z</time>
      </trkpt>
      <trkpt lat="49.97245" lon="1.40521">
        <ele>128</ele>
        <time>2011-06-10T13:33:37.000Z</time>
      </trkpt>
      <trkpt lat="49.97241" lon="1.40534">
        <ele>127</ele>
        <time>2011-06-10T13:33:51.000Z</time>
      </trkpt>
      <trkpt lat="49.97238" lon="1.40545">
        <ele>128</ele>
        <time>2011-06-10T13:34:00.000Z</time>
      </trkpt>
      <trkpt lat="49.97227" lon="1.4057">
        <ele>121</ele>
        <time>2011-06-10T13:34:18.000Z</time>
      </trkpt>
      <trkpt lat="49.9722" lon="1.40582">
        <ele>115</ele>
        <time>2011-06-10T13:34:28.000Z</time>
      </trkpt>
      <trkpt lat="49.972" lon="1.4063">
        <ele>118</ele>
        <time>2011-06-10T13:35:04.000Z</time>
      </trkpt>
      <trkpt lat="49.97197" lon="1.4064">
        <ele>118</ele>
        <time>2011-06-10T13:35:10.000Z</time>
      </trkpt>
      <trkpt lat="49.97194" lon="1.40647">
        <ele>118</ele>
        <time>2011-06-10T13:35:15.000Z</time>
      </trkpt>
      <trkpt lat="49.97174" lon="1.40702">
        <ele>123</ele>
        <time>2011-06-10T13:35:50.000Z</time>
      </trkpt>
      <trkpt lat="49.97159" lon="1.40745">
        <ele>116</ele>
        <time>2011-06-10T13:36:24.000Z</time>
      </trkpt>
      <trkpt lat="49.97139" lon="1.40794">
        <ele>127</ele>
        <time>2011-06-10T13:37:09.000Z</time>
      </trkpt>
      <trkpt lat="49.97133" lon="1.40799">
        <ele>138</ele>
        <time>2011-06-10T13:38:02.000Z</time>
      </trkpt>
      <trkpt lat="49.97123" lon="1.40783">
        <ele>129</ele>
        <time>2011-06-10T13:38:33.000Z</time>
      </trkpt>
      <trkpt lat="49.97118" lon="1.40777">
        <ele>127</ele>
        <time>2011-06-10T13:38:41.000Z</time>
      </trkpt>
      <trkpt lat="49.97112" lon="1.40769">
        <ele>128</ele>
        <time>2011-06-10T13:38:50.000Z</time>
      </trkpt>
      <trkpt lat="49.97075" lon="1.40733">
        <ele>127</ele>
        <time>2011-06-10T13:39:28.000Z</time>
      </trkpt>
      <trkpt lat="49.9707" lon="1.40727">
        <ele>127</ele>
        <time>2011-06-10T13:39:35.000Z</time>
      </trkpt>
      <trkpt lat="49.97066" lon="1.40723">
        <ele>127</ele>
        <time>2011-06-10T13:39:40.000Z</time>
      </trkpt>
      <trkpt lat="49.97056" lon="1.40716">
        <ele>123</ele>
        <time>2011-06-10T13:39:53.000Z</time>
      </trkpt>
      <trkpt lat="49.97048" lon="1.4071">
        <ele>124</ele>
        <time>2011-06-10T13:40:00.000Z</time>
      </trkpt>
      <trkpt lat="49.97017" lon="1.40683">
        <ele>132</ele>
        <time>2011-06-10T13:40:30.000Z</time>
      </trkpt>
      <trkpt lat="49.97009" lon="1.40673">
        <ele>132</ele>
        <time>2011-06-10T13:40:44.000Z</time>
      </trkpt>
      <trkpt lat="49.96989" lon="1.40652">
        <ele>131</ele>
        <time>2011-06-10T13:41:06.000Z</time>
      </trkpt>
      <trkpt lat="49.9695" lon="1.40615">
        <ele>126</ele>
        <time>2011-06-10T13:41:42.000Z</time>
      </trkpt>
      <trkpt lat="49.96949" lon="1.40614">
        <ele>126</ele>
        <time>2011-06-10T13:41:43.000Z</time>
      </trkpt>
      <trkpt lat="49.96941" lon="1.40606">
        <ele>126</ele>
        <time>2011-06-10T13:41:50.000Z</time>
      </trkpt>
      <trkpt lat="49.96934" lon="1.40597">
        <ele>125</ele>
        <time>2011-06-10T13:42:00.000Z</time>
      </trkpt>
      <trkpt lat="49.96924" lon="1.40587">
        <ele>128</ele>
        <time>2011-06-10T13:42:11.000Z</time>
      </trkpt>
      <trkpt lat="49.96917" lon="1.4058">
        <ele>130</ele>
        <time>2011-06-10T13:42:17.000Z</time>
      </trkpt>
      <trkpt lat="49.96912" lon="1.40576">
        <ele>129</ele>
        <time>2011-06-10T13:42:33.000Z</time>
      </trkpt>
      <trkpt lat="49.96908" lon="1.40556">
        <ele>125</ele>
        <time>2011-06-10T13:42:54.000Z</time>
      </trkpt>
      <trkpt lat="49.96907" lon="1.40544">
        <ele>124</ele>
        <time>2011-06-10T13:43:04.000Z</time>
      </trkpt>
      <trkpt lat="49.96906" lon="1.40537">
        <ele>123</ele>
        <time>2011-06-10T13:43:09.000Z</time>
      </trkpt>
      <trkpt lat="49.96903" lon="1.40527">
        <ele>121</ele>
        <time>2011-06-10T13:43:17.000Z</time>
      </trkpt>
      <trkpt lat="49.96899" lon="1.40515">
        <ele>120</ele>
        <time>2011-06-10T13:43:24.000Z</time>
      </trkpt>
      <trkpt lat="49.96889" lon="1.40485">
        <ele>123</ele>
        <time>2011-06-10T13:43:45.000Z</time>
      </trkpt>
      <trkpt lat="49.96886" lon="1.40474">
        <ele>125</ele>
        <time>2011-06-10T13:43:52.000Z</time>
      </trkpt>
      <trkpt lat="49.96879" lon="1.40458">
        <ele>129</ele>
        <time>2011-06-10T13:44:04.000Z</time>
      </trkpt>
      <trkpt lat="49.96877" lon="1.40449">
        <ele>128</ele>
        <time>2011-06-10T13:44:10.000Z</time>
      </trkpt>
      <trkpt lat="49.9687" lon="1.40425">
        <ele>117</ele>
        <time>2011-06-10T13:44:35.000Z</time>
      </trkpt>
      <trkpt lat="49.96844" lon="1.40404">
        <ele>116</ele>
        <time>2011-06-10T13:45:05.000Z</time>
      </trkpt>
      <trkpt lat="49.96797" lon="1.40393">
        <ele>111</ele>
        <time>2011-06-10T13:45:52.000Z</time>
      </trkpt>
      <trkpt lat="49.96796" lon="1.40393">
        <ele>110</ele>
        <time>2011-06-10T13:45:53.000Z</time>
      </trkpt>
      <trkpt lat="49.96778" lon="1.40388">
        <ele>111</ele>
        <time>2011-06-10T13:46:14.000Z</time>
      </trkpt>
      <trkpt lat="49.96758" lon="1.40378">
        <ele>111</ele>
        <time>2011-06-10T13:46:35.000Z</time>
      </trkpt>
      <trkpt lat="49.96749" lon="1.40377">
        <ele>106</ele>
        <time>2011-06-10T13:46:45.000Z</time>
      </trkpt>
      <trkpt lat="49.96732" lon="1.40371">
        <ele>103</ele>
        <time>2011-06-10T13:47:04.000Z</time>
      </trkpt>
      <trkpt lat="49.96724" lon="1.40367">
        <ele>101</ele>
        <time>2011-06-10T13:47:16.000Z</time>
      </trkpt>
      <trkpt lat="49.96719" lon="1.4036">
        <ele>103</ele>
        <time>2011-06-10T13:47:40.000Z</time>
      </trkpt>
      <trkpt lat="49.96714" lon="1.40362">
        <ele>99</ele>
        <time>2011-06-10T13:48:14.000Z</time>
      </trkpt>
      <trkpt lat="49.96707" lon="1.40358">
        <ele>101</ele>
        <time>2011-06-10T13:48:23.000Z</time>
      </trkpt>
      <trkpt lat="49.96695" lon="1.40362">
        <ele>106</ele>
        <time>2011-06-10T13:48:54.000Z</time>
      </trkpt>
      <trkpt lat="49.96689" lon="1.40361">
        <ele>104</ele>
        <time>2011-06-10T13:49:01.000Z</time>
      </trkpt>
      <trkpt lat="49.96681" lon="1.40356">
        <ele>101</ele>
        <time>2011-06-10T13:49:12.000Z</time>
      </trkpt>
      <trkpt lat="49.96674" lon="1.40351">
        <ele>99</ele>
        <time>2011-06-10T13:49:30.000Z</time>
      </trkpt>
      <trkpt lat="49.96654" lon="1.40338">
        <ele>92</ele>
        <time>2011-06-10T13:50:00.000Z</time>
      </trkpt>
      <trkpt lat="49.96636" lon="1.4033">
        <ele>90</ele>
        <time>2011-06-10T13:50:23.000Z</time>
      </trkpt>
      <trkpt lat="49.96624" lon="1.40335">
        <ele>84</ele>
        <time>2011-06-10T13:50:43.000Z</time>
      </trkpt>
      <trkpt lat="49.96621" lon="1.40341">
        <ele>79</ele>
        <time>2011-06-10T13:50:52.000Z</time>
      </trkpt>
      <trkpt lat="49.96618" lon="1.40348">
        <ele>78</ele>
        <time>2011-06-10T13:50:59.000Z</time>
      </trkpt>
      <trkpt lat="49.96611" lon="1.40366">
        <ele>76</ele>
        <time>2011-06-10T13:51:13.000Z</time>
      </trkpt>
      <trkpt lat="49.96608" lon="1.40373">
        <ele>74</ele>
        <time>2011-06-10T13:51:20.000Z</time>
      </trkpt>
      <trkpt lat="49.96603" lon="1.40382">
        <ele>70</ele>
        <time>2011-06-10T13:51:33.000Z</time>
      </trkpt>
      <trkpt lat="49.96599" lon="1.40389">
        <ele>69</ele>
        <time>2011-06-10T13:51:41.000Z</time>
      </trkpt>
      <trkpt lat="49.96595" lon="1.40402">
        <ele>67</ele>
        <time>2011-06-10T13:51:50.000Z</time>
      </trkpt>
      <trkpt lat="49.96592" lon="1.40411">
        <ele>67</ele>
        <time>2011-06-10T13:51:57.000Z</time>
      </trkpt>
      <trkpt lat="49.96579" lon="1.40442">
        <ele>56</ele>
        <time>2011-06-10T13:52:27.000Z</time>
      </trkpt>
      <trkpt lat="49.96555" lon="1.40481">
        <ele>68</ele>
        <time>2011-06-10T13:53:02.000Z</time>
      </trkpt>
      <trkpt lat="49.96535" lon="1.40519">
        <ele>71</ele>
        <time>2011-06-10T13:53:39.000Z</time>
      </trkpt>
      <trkpt lat="49.96531" lon="1.40528">
        <ele>71</ele>
        <time>2011-06-10T13:53:47.000Z</time>
      </trkpt>
      <trkpt lat="49.96522" lon="1.40548">
        <ele>72</ele>
        <time>2011-06-10T13:54:13.000Z</time>
      </trkpt>
      <trkpt lat="49.96514" lon="1.40559">
        <ele>67</ele>
        <time>2011-06-10T13:54:29.000Z</time>
      </trkpt>
      <trkpt lat="49.96495" lon="1.40583">
        <ele>66</ele>
        <time>2011-06-10T13:55:24.000Z</time>
      </trkpt>
      <trkpt lat="49.96463" lon="1.40597">
        <ele>66</ele>
        <time>2011-06-10T13:56:05.000Z</time>
      </trkpt>
      <trkpt lat="49.96443" lon="1.40601">
        <ele>64</ele>
        <time>2011-06-10T13:56:30.000Z</time>
      </trkpt>
      <trkpt lat="49.9642" lon="1.40594">
        <ele>63</ele>
        <time>2011-06-10T13:56:57.000Z</time>
      </trkpt>
      <trkpt lat="49.96386" lon="1.40577">
        <ele>57</ele>
        <time>2011-06-10T13:57:37.000Z</time>
      </trkpt>
      <trkpt lat="49.96353" lon="1.40552">
        <ele>53</ele>
        <time>2011-06-10T13:58:22.000Z</time>
      </trkpt>
      <trkpt lat="49.96322" lon="1.40522">
        <ele>49</ele>
        <time>2011-06-10T13:58:56.000Z</time>
      </trkpt>
      <trkpt lat="49.96307" lon="1.405">
        <ele>47</ele>
        <time>2011-06-10T13:59:16.000Z</time>
      </trkpt>
      <trkpt lat="49.96303" lon="1.40489">
        <ele>45</ele>
        <time>2011-06-10T13:59:25.000Z</time>
      </trkpt>
      <trkpt lat="49.96301" lon="1.40481">
        <ele>44</ele>
        <time>2011-06-10T13:59:31.000Z</time>
      </trkpt>
      <trkpt lat="49.963" lon="1.40466">
        <ele>42</ele>
        <time>2011-06-10T13:59:40.000Z</time>
      </trkpt>
      <trkpt lat="49.963" lon="1.40452">
        <ele>41</ele>
        <time>2011-06-10T13:59:49.000Z</time>
      </trkpt>
      <trkpt lat="49.96297" lon="1.40439">
        <ele>40</ele>
        <time>2011-06-10T13:59:58.000Z</time>
      </trkpt>
      <trkpt lat="49.96294" lon="1.40431">
        <ele>40</ele>
        <time>2011-06-10T14:00:03.000Z</time>
      </trkpt>
      <trkpt lat="49.96289" lon="1.40419">
        <ele>40</ele>
        <time>2011-06-10T14:00:15.000Z</time>
      </trkpt>
      <trkpt lat="49.96285" lon="1.40412">
        <ele>39</ele>
        <time>2011-06-10T14:00:20.000Z</time>
      </trkpt>
      <trkpt lat="49.96282" lon="1.40405">
        <ele>38</ele>
        <time>2011-06-10T14:00:25.000Z</time>
      </trkpt>
      <trkpt lat="49.96251" lon="1.40354">
        <ele>39</ele>
        <time>2011-06-10T14:01:00.000Z</time>
      </trkpt>
      <trkpt lat="49.96251" lon="1.40352">
        <ele>39</ele>
        <time>2011-06-10T14:01:01.000Z</time>
      </trkpt>
      <trkpt lat="49.96218" lon="1.40302">
        <ele>42</ele>
        <time>2011-06-10T14:01:38.000Z</time>
      </trkpt>
      <trkpt lat="49.96217" lon="1.403">
        <ele>42</ele>
        <time>2011-06-10T14:01:39.000Z</time>
      </trkpt>
      <trkpt lat="49.96207" lon="1.40286">
        <ele>45</ele>
        <time>2011-06-10T14:01:49.000Z</time>
      </trkpt>
      <trkpt lat="49.96179" lon="1.40246">
        <ele>47</ele>
        <time>2011-06-10T14:02:19.000Z</time>
      </trkpt>
      <trkpt lat="49.96176" lon="1.4024">
        <ele>47</ele>
        <time>2011-06-10T14:02:23.000Z</time>
      </trkpt>
      <trkpt lat="49.96167" lon="1.40225">
        <ele>47</ele>
        <time>2011-06-10T14:02:33.000Z</time>
      </trkpt>
      <trkpt lat="49.96149" lon="1.40191">
        <ele>46</ele>
        <time>2011-06-10T14:02:57.000Z</time>
      </trkpt>
      <trkpt lat="49.96137" lon="1.4017">
        <ele>47</ele>
        <time>2011-06-10T14:03:14.000Z</time>
      </trkpt>
      <trkpt lat="49.96135" lon="1.40163">
        <ele>47</ele>
        <time>2011-06-10T14:03:21.000Z</time>
      </trkpt>
      <trkpt lat="49.96131" lon="1.40153">
        <ele>36</ele>
        <time>2011-06-10T14:03:54.000Z</time>
      </trkpt>
      <trkpt lat="49.96127" lon="1.40148">
        <ele>36</ele>
        <time>2011-06-10T14:04:00.000Z</time>
      </trkpt>
      <trkpt lat="49.96115" lon="1.40122">
        <ele>35</ele>
        <time>2011-06-10T14:04:17.000Z</time>
      </trkpt>
      <trkpt lat="49.9609" lon="1.40076">
        <ele>38</ele>
        <time>2011-06-10T14:04:49.000Z</time>
      </trkpt>
      <trkpt lat="49.96082" lon="1.40064">
        <ele>38</ele>
        <time>2011-06-10T14:04:58.000Z</time>
      </trkpt>
      <trkpt lat="49.96068" lon="1.40049">
        <ele>40</ele>
        <time>2011-06-10T14:05:12.000Z</time>
      </trkpt>
      <trkpt lat="49.9606" lon="1.40045">
        <ele>42</ele>
        <time>2011-06-10T14:05:21.000Z</time>
      </trkpt>
      <trkpt lat="49.96053" lon="1.40046">
        <ele>42</ele>
        <time>2011-06-10T14:05:44.000Z</time>
      </trkpt>
      <trkpt lat="49.96048" lon="1.40042">
        <ele>41</ele>
        <time>2011-06-10T14:05:53.000Z</time>
      </trkpt>
      <trkpt lat="49.96043" lon="1.40038">
        <ele>41</ele>
        <time>2011-06-10T14:05:59.000Z</time>
      </trkpt>
      <trkpt lat="49.96038" lon="1.40034">
        <ele>40</ele>
        <time>2011-06-10T14:06:14.000Z</time>
      </trkpt>
      <trkpt lat="49.96024" lon="1.40022">
        <ele>47</ele>
        <time>2011-06-10T14:07:19.000Z</time>
      </trkpt>
      <trkpt lat="49.96021" lon="1.40017">
        <ele>47</ele>
        <time>2011-06-10T14:07:26.000Z</time>
      </trkpt>
      <trkpt lat="49.96004" lon="1.39999">
        <ele>47</ele>
        <time>2011-06-10T14:07:58.000Z</time>
      </trkpt>
      <trkpt lat="49.96003" lon="1.39992">
        <ele>47</ele>
        <time>2011-06-10T14:08:04.000Z</time>
      </trkpt>
      <trkpt lat="49.96002" lon="1.39973">
        <ele>48</ele>
        <time>2011-06-10T14:08:16.000Z</time>
      </trkpt>
      <trkpt lat="49.96001" lon="1.39959">
        <ele>45</ele>
        <time>2011-06-10T14:08:39.000Z</time>
      </trkpt>
      <trkpt lat="49.96003" lon="1.39952">
        <ele>43</ele>
        <time>2011-06-10T14:08:50.000Z</time>
      </trkpt>
      <trkpt lat="49.96" lon="1.39941">
        <ele>48</ele>
        <time>2011-06-10T14:09:46.000Z</time>
      </trkpt>
      <trkpt lat="49.96009" lon="1.39918">
        <ele>52</ele>
        <time>2011-06-10T14:10:14.000Z</time>
      </trkpt>
      <trkpt lat="49.96007" lon="1.39905">
        <ele>43</ele>
        <time>2011-06-10T14:10:44.000Z</time>
      </trkpt>
      <trkpt lat="49.9601" lon="1.39888">
        <ele>46</ele>
        <time>2011-06-10T14:10:59.000Z</time>
      </trkpt>
      <trkpt lat="49.96006" lon="1.39866">
        <ele>50</ele>
        <time>2011-06-10T14:11:16.000Z</time>
      </trkpt>
      <trkpt lat="49.96007" lon="1.3983">
        <ele>52</ele>
        <time>2011-06-10T14:11:37.000Z</time>
      </trkpt>
      <trkpt lat="49.96007" lon="1.39817">
        <ele>53</ele>
        <time>2011-06-10T14:11:45.000Z</time>
      </trkpt>
      <trkpt lat="49.9601" lon="1.39776">
        <ele>57</ele>
        <time>2011-06-10T14:12:06.000Z</time>
      </trkpt>
      <trkpt lat="49.9601" lon="1.39767">
        <ele>55</ele>
        <time>2011-06-10T14:12:14.000Z</time>
      </trkpt>
      <trkpt lat="49.96015" lon="1.39746">
        <ele>55</ele>
        <time>2011-06-10T14:12:27.000Z</time>
      </trkpt>
      <trkpt lat="49.9602" lon="1.3973">
        <ele>53</ele>
        <time>2011-06-10T14:12:39.000Z</time>
      </trkpt>
      <trkpt lat="49.96034" lon="1.39702">
        <ele>46</ele>
        <time>2011-06-10T14:13:03.000Z</time>
      </trkpt>
      <trkpt lat="49.96043" lon="1.3969">
        <ele>44</ele>
        <time>2011-06-10T14:13:15.000Z</time>
      </trkpt>
      <trkpt lat="49.9608" lon="1.39647">
        <ele>43</ele>
        <time>2011-06-10T14:13:54.000Z</time>
      </trkpt>
      <trkpt lat="49.9608" lon="1.39646">
        <ele>43</ele>
        <time>2011-06-10T14:13:55.000Z</time>
      </trkpt>
      <trkpt lat="49.96095" lon="1.39628">
        <ele>43</ele>
        <time>2011-06-10T14:14:11.000Z</time>
      </trkpt>
      <trkpt lat="49.96105" lon="1.39612">
        <ele>43</ele>
        <time>2011-06-10T14:14:24.000Z</time>
      </trkpt>
      <trkpt lat="49.9611" lon="1.39606">
        <ele>44</ele>
        <time>2011-06-10T14:14:29.000Z</time>
      </trkpt>
      <trkpt lat="49.96129" lon="1.39574">
        <ele>46</ele>
        <time>2011-06-10T14:14:52.000Z</time>
      </trkpt>
      <trkpt lat="49.96145" lon="1.39542">
        <ele>45</ele>
        <time>2011-06-10T14:15:15.000Z</time>
      </trkpt>
      <trkpt lat="49.96163" lon="1.39525">
        <ele>46</ele>
        <time>2011-06-10T14:16:06.000Z</time>
      </trkpt>
      <trkpt lat="49.96162" lon="1.39527">
        <ele>42</ele>
        <time>2011-06-10T14:16:23.000Z</time>
      </trkpt>
      <trkpt lat="49.96168" lon="1.39517">
        <ele>43</ele>
        <time>2011-06-10T14:16:31.000Z</time>
      </trkpt>
      <trkpt lat="49.96172" lon="1.39507">
        <ele>42</ele>
        <time>2011-06-10T14:16:39.000Z</time>
      </trkpt>
      <trkpt lat="49.96178" lon="1.39493">
        <ele>41</ele>
        <time>2011-06-10T14:16:48.000Z</time>
      </trkpt>
      <trkpt lat="49.96182" lon="1.3948">
        <ele>41</ele>
        <time>2011-06-10T14:16:56.000Z</time>
      </trkpt>
      <trkpt lat="49.96186" lon="1.39468">
        <ele>42</ele>
        <time>2011-06-10T14:17:04.000Z</time>
      </trkpt>
      <trkpt lat="49.96192" lon="1.39448">
        <ele>44</ele>
        <time>2011-06-10T14:17:17.000Z</time>
      </trkpt>
      <trkpt lat="49.96198" lon="1.39423">
        <ele>44</ele>
        <time>2011-06-10T14:17:34.000Z</time>
      </trkpt>
      <trkpt lat="49.96208" lon="1.39377">
        <ele>49</ele>
        <time>2011-06-10T14:17:59.000Z</time>
      </trkpt>
      <trkpt lat="49.96211" lon="1.39364">
        <ele>52</ele>
        <time>2011-06-10T14:18:05.000Z</time>
      </trkpt>
      <trkpt lat="49.96212" lon="1.39343">
        <ele>53</ele>
        <time>2011-06-10T14:18:17.000Z</time>
      </trkpt>
      <trkpt lat="49.9621" lon="1.39335">
        <ele>53</ele>
        <time>2011-06-10T14:18:22.000Z</time>
      </trkpt>
      <trkpt lat="49.9621" lon="1.39325">
        <ele>52</ele>
        <time>2011-06-10T14:18:28.000Z</time>
      </trkpt>
      <trkpt lat="49.96209" lon="1.39299">
        <ele>49</ele>
        <time>2011-06-10T14:18:46.000Z</time>
      </trkpt>
      <trkpt lat="49.96207" lon="1.39286">
        <ele>49</ele>
        <time>2011-06-10T14:18:54.000Z</time>
      </trkpt>
      <trkpt lat="49.96206" lon="1.39276">
        <ele>50</ele>
        <time>2011-06-10T14:18:59.000Z</time>
      </trkpt>
      <trkpt lat="49.96193" lon="1.39209">
        <ele>54</ele>
        <time>2011-06-10T14:19:37.000Z</time>
      </trkpt>
      <trkpt lat="49.96193" lon="1.39207">
        <ele>55</ele>
        <time>2011-06-10T14:19:38.000Z</time>
      </trkpt>
      <trkpt lat="49.96176" lon="1.39142">
        <ele>55</ele>
        <time>2011-06-10T14:20:37.000Z</time>
      </trkpt>
      <trkpt lat="49.96175" lon="1.3914">
        <ele>55</ele>
        <time>2011-06-10T14:20:38.000Z</time>
      </trkpt>
      <trkpt lat="49.96173" lon="1.39133">
        <ele>55</ele>
        <time>2011-06-10T14:20:43.000Z</time>
      </trkpt>
      <trkpt lat="49.96151" lon="1.39071">
        <ele>56</ele>
        <time>2011-06-10T14:21:34.000Z</time>
      </trkpt>
      <trkpt lat="49.9615" lon="1.39069">
        <ele>57</ele>
        <time>2011-06-10T14:21:35.000Z</time>
      </trkpt>
      <trkpt lat="49.96129" lon="1.39008">
        <ele>59</ele>
        <time>2011-06-10T14:22:17.000Z</time>
      </trkpt>
      <trkpt lat="49.96128" lon="1.39006">
        <ele>59</ele>
        <time>2011-06-10T14:22:18.000Z</time>
      </trkpt>
      <trkpt lat="49.96106" lon="1.38944">
        <ele>63</ele>
        <time>2011-06-10T14:22:58.000Z</time>
      </trkpt>
      <trkpt lat="49.96106" lon="1.38943">
        <ele>63</ele>
        <time>2011-06-10T14:22:59.000Z</time>
      </trkpt>
      <trkpt lat="49.96104" lon="1.38938">
        <ele>63</ele>
        <time>2011-06-10T14:23:02.000Z</time>
      </trkpt>
      <trkpt lat="49.96083" lon="1.38876">
        <ele>66</ele>
        <time>2011-06-10T14:23:44.000Z</time>
      </trkpt>
      <trkpt lat="49.96082" lon="1.38874">
        <ele>67</ele>
        <time>2011-06-10T14:23:45.000Z</time>
      </trkpt>
      <trkpt lat="49.96059" lon="1.38813">
        <ele>69</ele>
        <time>2011-06-10T14:24:27.000Z</time>
      </trkpt>
      <trkpt lat="49.96058" lon="1.38812">
        <ele>69</ele>
        <time>2011-06-10T14:24:28.000Z</time>
      </trkpt>
      <trkpt lat="49.96036" lon="1.3875">
        <ele>74</ele>
        <time>2011-06-10T14:25:14.000Z</time>
      </trkpt>
      <trkpt lat="49.96035" lon="1.38748">
        <ele>74</ele>
        <time>2011-06-10T14:25:15.000Z</time>
      </trkpt>
      <trkpt lat="49.96024" lon="1.38722">
        <ele>76</ele>
        <time>2011-06-10T14:25:36.000Z</time>
      </trkpt>
      <trkpt lat="49.96022" lon="1.38714">
        <ele>77</ele>
        <time>2011-06-10T14:25:41.000Z</time>
      </trkpt>
      <trkpt lat="49.96003" lon="1.38678">
        <ele>80</ele>
        <time>2011-06-10T14:26:10.000Z</time>
      </trkpt>
      <trkpt lat="49.96001" lon="1.38669">
        <ele>82</ele>
        <time>2011-06-10T14:26:16.000Z</time>
      </trkpt>
      <trkpt lat="49.95984" lon="1.38631">
        <ele>87</ele>
        <time>2011-06-10T14:26:45.000Z</time>
      </trkpt>
      <trkpt lat="49.95977" lon="1.38616">
        <ele>89</ele>
        <time>2011-06-10T14:26:57.000Z</time>
      </trkpt>
      <trkpt lat="49.95971" lon="1.38608">
        <ele>89</ele>
        <time>2011-06-10T14:27:09.000Z</time>
      </trkpt>
      <trkpt lat="49.95962" lon="1.38608">
        <ele>87</ele>
        <time>2011-06-10T14:27:31.000Z</time>
      </trkpt>
      <trkpt lat="49.95956" lon="1.38599">
        <ele>89</ele>
        <time>2011-06-10T14:27:41.000Z</time>
      </trkpt>
      <trkpt lat="49.95953" lon="1.38591">
        <ele>91</ele>
        <time>2011-06-10T14:27:47.000Z</time>
      </trkpt>
      <trkpt lat="49.9595" lon="1.3858">
        <ele>92</ele>
        <time>2011-06-10T14:27:55.000Z</time>
      </trkpt>
      <trkpt lat="49.95947" lon="1.38567">
        <ele>92</ele>
        <time>2011-06-10T14:28:03.000Z</time>
      </trkpt>
      <trkpt lat="49.95942" lon="1.38553">
        <ele>94</ele>
        <time>2011-06-10T14:28:15.000Z</time>
      </trkpt>
      <trkpt lat="49.95938" lon="1.38547">
        <ele>98</ele>
        <time>2011-06-10T14:28:21.000Z</time>
      </trkpt>
      <trkpt lat="49.95927" lon="1.38538">
        <ele>106</ele>
        <time>2011-06-10T14:28:31.000Z</time>
      </trkpt>
      <trkpt lat="49.95903" lon="1.38509">
        <ele>114</ele>
        <time>2011-06-10T14:29:01.000Z</time>
      </trkpt>
      <trkpt lat="49.95873" lon="1.38488">
        <ele>124</ele>
        <time>2011-06-10T14:29:25.000Z</time>
      </trkpt>
      <trkpt lat="49.95862" lon="1.38476">
        <ele>123</ele>
        <time>2011-06-10T14:29:38.000Z</time>
      </trkpt>
      <trkpt lat="49.95855" lon="1.38468">
        <ele>117</ele>
        <time>2011-06-10T14:29:49.000Z</time>
      </trkpt>
      <trkpt lat="49.9584" lon="1.38451">
        <ele>105</ele>
        <time>2011-06-10T14:30:15.000Z</time>
      </trkpt>
      <trkpt lat="49.9583" lon="1.38444">
        <ele>109</ele>
        <time>2011-06-10T14:30:29.000Z</time>
      </trkpt>
      <trkpt lat="49.95821" lon="1.38445">
        <ele>111</ele>
        <time>2011-06-10T14:30:38.000Z</time>
      </trkpt>
      <trkpt lat="49.95816" lon="1.38446">
        <ele>110</ele>
        <time>2011-06-10T14:30:47.000Z</time>
      </trkpt>
      <trkpt lat="49.95809" lon="1.38433">
        <ele>119</ele>
        <time>2011-06-10T14:31:04.000Z</time>
      </trkpt>
      <trkpt lat="49.95807" lon="1.38427">
        <ele>123</ele>
        <time>2011-06-10T14:31:09.000Z</time>
      </trkpt>
      <trkpt lat="49.958" lon="1.38419">
        <ele>126</ele>
        <time>2011-06-10T14:31:22.000Z</time>
      </trkpt>
      <trkpt lat="49.95796" lon="1.38414">
        <ele>124</ele>
        <time>2011-06-10T14:31:36.000Z</time>
      </trkpt>
      <trkpt lat="49.95792" lon="1.38407">
        <ele>121</ele>
        <time>2011-06-10T14:31:42.000Z</time>
      </trkpt>
      <trkpt lat="49.95776" lon="1.38389">
        <ele>129</ele>
        <time>2011-06-10T14:32:04.000Z</time>
      </trkpt>
      <trkpt lat="49.9577" lon="1.38379">
        <ele>132</ele>
        <time>2011-06-10T14:32:16.000Z</time>
      </trkpt>
      <trkpt lat="49.95762" lon="1.3836">
        <ele>134</ele>
        <time>2011-06-10T14:32:32.000Z</time>
      </trkpt>
      <trkpt lat="49.9576" lon="1.38353">
        <ele>133</ele>
        <time>2011-06-10T14:32:39.000Z</time>
      </trkpt>
      <trkpt lat="49.95756" lon="1.38337">
        <ele>132</ele>
        <time>2011-06-10T14:32:50.000Z</time>
      </trkpt>
      <trkpt lat="49.95751" lon="1.38316">
        <ele>134</ele>
        <time>2011-06-10T14:33:05.000Z</time>
      </trkpt>
      <trkpt lat="49.95745" lon="1.38297">
        <ele>136</ele>
        <time>2011-06-10T14:33:18.000Z</time>
      </trkpt>
      <trkpt lat="49.95739" lon="1.38282">
        <ele>133</ele>
        <time>2011-06-10T14:33:31.000Z</time>
      </trkpt>
      <trkpt lat="49.95736" lon="1.38264">
        <ele>134</ele>
        <time>2011-06-10T14:33:45.000Z</time>
      </trkpt>
      <trkpt lat="49.95734" lon="1.38252">
        <ele>133</ele>
        <time>2011-06-10T14:33:55.000Z</time>
      </trkpt>
      <trkpt lat="49.9573" lon="1.38237">
        <ele>132</ele>
        <time>2011-06-10T14:34:04.000Z</time>
      </trkpt>
      <trkpt lat="49.95727" lon="1.38232">
        <ele>133</ele>
        <time>2011-06-10T14:34:08.000Z</time>
      </trkpt>
      <trkpt lat="49.95724" lon="1.38224">
        <ele>137</ele>
        <time>2011-06-10T14:34:12.000Z</time>
      </trkpt>
      <trkpt lat="49.95719" lon="1.38198">
        <ele>142</ele>
        <time>2011-06-10T14:34:29.000Z</time>
      </trkpt>
      <trkpt lat="49.95716" lon="1.38181">
        <ele>141</ele>
        <time>2011-06-10T14:34:39.000Z</time>
      </trkpt>
      <trkpt lat="49.95712" lon="1.38178">
        <ele>142</ele>
        <time>2011-06-10T14:34:50.000Z</time>
      </trkpt>
      <trkpt lat="49.95712" lon="1.38196">
        <ele>117</ele>
        <time>2011-06-10T14:35:15.000Z</time>
      </trkpt>
      <trkpt lat="49.95713" lon="1.38189">
        <ele>114</ele>
        <time>2011-06-10T14:35:21.000Z</time>
      </trkpt>
      <trkpt lat="49.95703" lon="1.38131">
        <ele>133</ele>
        <time>2011-06-10T14:35:46.000Z</time>
      </trkpt>
      <trkpt lat="49.95692" lon="1.38113">
        <ele>139</ele>
        <time>2011-06-10T14:36:02.000Z</time>
      </trkpt>
      <trkpt lat="49.95688" lon="1.38108">
        <ele>141</ele>
        <time>2011-06-10T14:36:07.000Z</time>
      </trkpt>
      <trkpt lat="49.95682" lon="1.38096">
        <ele>142</ele>
        <time>2011-06-10T14:36:15.000Z</time>
      </trkpt>
      <trkpt lat="49.95671" lon="1.38075">
        <ele>144</ele>
        <time>2011-06-10T14:36:29.000Z</time>
      </trkpt>
      <trkpt lat="49.95664" lon="1.38062">
        <ele>147</ele>
        <time>2011-06-10T14:36:39.000Z</time>
      </trkpt>
      <trkpt lat="49.9566" lon="1.38046">
        <ele>135</ele>
        <time>2011-06-10T14:37:03.000Z</time>
      </trkpt>
      <trkpt lat="49.95656" lon="1.3804">
        <ele>131</ele>
        <time>2011-06-10T14:37:09.000Z</time>
      </trkpt>
      <trkpt lat="49.95652" lon="1.38032">
        <ele>128</ele>
        <time>2011-06-10T14:37:16.000Z</time>
      </trkpt>
      <trkpt lat="49.95645" lon="1.38029">
        <ele>126</ele>
        <time>2011-06-10T14:37:24.000Z</time>
      </trkpt>
      <trkpt lat="49.95638" lon="1.38029">
        <ele>128</ele>
        <time>2011-06-10T14:37:47.000Z</time>
      </trkpt>
      <trkpt lat="49.95635" lon="1.38026">
        <ele>130</ele>
        <time>2011-06-10T14:37:55.000Z</time>
      </trkpt>
      <trkpt lat="49.95635" lon="1.38014">
        <ele>129</ele>
        <time>2011-06-10T14:38:05.000Z</time>
      </trkpt>
      <trkpt lat="49.95634" lon="1.38005">
        <ele>128</ele>
        <time>2011-06-10T14:38:17.000Z</time>
      </trkpt>
      <trkpt lat="49.9563" lon="1.37999">
        <ele>128</ele>
        <time>2011-06-10T14:38:23.000Z</time>
      </trkpt>
      <trkpt lat="49.95628" lon="1.37993">
        <ele>128</ele>
        <time>2011-06-10T14:38:29.000Z</time>
      </trkpt>
      <trkpt lat="49.95596" lon="1.37943">
        <ele>129</ele>
        <time>2011-06-10T14:39:14.000Z</time>
      </trkpt>
      <trkpt lat="49.95595" lon="1.37942">
        <ele>129</ele>
        <time>2011-06-10T14:39:15.000Z</time>
      </trkpt>
      <trkpt lat="49.9558" lon="1.37917">
        <ele>131</ele>
        <time>2011-06-10T14:39:40.000Z</time>
      </trkpt>
      <trkpt lat="49.95583" lon="1.37911">
        <ele>131</ele>
        <time>2011-06-10T14:39:46.000Z</time>
      </trkpt>
      <trkpt lat="49.95589" lon="1.3791">
        <ele>131</ele>
        <time>2011-06-10T14:39:54.000Z</time>
      </trkpt>
      <trkpt lat="49.95594" lon="1.37912">
        <ele>131</ele>
        <time>2011-06-10T14:40:05.000Z</time>
      </trkpt>
      <trkpt lat="49.95601" lon="1.37912">
        <ele>130</ele>
        <time>2011-06-10T14:40:12.000Z</time>
      </trkpt>
      <trkpt lat="49.95612" lon="1.37915">
        <ele>128</ele>
        <time>2011-06-10T14:40:24.000Z</time>
      </trkpt>
      <trkpt lat="49.9562" lon="1.37915">
        <ele>127</ele>
        <time>2011-06-10T14:40:33.000Z</time>
      </trkpt>
      <trkpt lat="49.95625" lon="1.37916">
        <ele>127</ele>
        <time>2011-06-10T14:40:41.000Z</time>
      </trkpt>
      <trkpt lat="49.9567" lon="1.3792">
        <ele>127</ele>
        <time>2011-06-10T14:41:31.000Z</time>
      </trkpt>
      <trkpt lat="49.95672" lon="1.37921">
        <ele>127</ele>
        <time>2011-06-10T14:41:32.000Z</time>
      </trkpt>
      <trkpt lat="49.95717" lon="1.37923">
        <ele>125</ele>
        <time>2011-06-10T14:42:17.000Z</time>
      </trkpt>
      <trkpt lat="49.95718" lon="1.37923">
        <ele>125</ele>
        <time>2011-06-10T14:42:18.000Z</time>
      </trkpt>
      <trkpt lat="49.95764" lon="1.37925">
        <ele>127</ele>
        <time>2011-06-10T14:43:00.000Z</time>
      </trkpt>
      <trkpt lat="49.95765" lon="1.37926">
        <ele>127</ele>
        <time>2011-06-10T14:43:01.000Z</time>
      </trkpt>
      <trkpt lat="49.95804" lon="1.37935">
        <ele>129</ele>
        <time>2011-06-10T14:43:38.000Z</time>
      </trkpt>
      <trkpt lat="49.95848" lon="1.37954">
        <ele>130</ele>
        <time>2011-06-10T14:44:20.000Z</time>
      </trkpt>
      <trkpt lat="49.95849" lon="1.37955">
        <ele>130</ele>
        <time>2011-06-10T14:44:21.000Z</time>
      </trkpt>
      <trkpt lat="49.95893" lon="1.37976">
        <ele>127</ele>
        <time>2011-06-10T14:45:08.000Z</time>
      </trkpt>
      <trkpt lat="49.95894" lon="1.37976">
        <ele>127</ele>
        <time>2011-06-10T14:45:09.000Z</time>
      </trkpt>
      <trkpt lat="49.95907" lon="1.37982">
        <ele>125</ele>
        <time>2011-06-10T14:45:26.000Z</time>
      </trkpt>
      <trkpt lat="49.95917" lon="1.37982">
        <ele>124</ele>
        <time>2011-06-10T14:45:38.000Z</time>
      </trkpt>
      <trkpt lat="49.95939" lon="1.37974">
        <ele>126</ele>
        <time>2011-06-10T14:46:08.000Z</time>
      </trkpt>
      <trkpt lat="49.95967" lon="1.37979">
        <ele>118</ele>
        <time>2011-06-10T14:46:38.000Z</time>
      </trkpt>
      <trkpt lat="49.96013" lon="1.37986">
        <ele>118</ele>
        <time>2011-06-10T14:47:22.000Z</time>
      </trkpt>
      <trkpt lat="49.96014" lon="1.37986">
        <ele>118</ele>
        <time>2011-06-10T14:47:23.000Z</time>
      </trkpt>
      <trkpt lat="49.96023" lon="1.37984">
        <ele>124</ele>
        <time>2011-06-10T14:47:50.000Z</time>
      </trkpt>
      <trkpt lat="49.96031" lon="1.37988">
        <ele>122</ele>
        <time>2011-06-10T14:48:05.000Z</time>
      </trkpt>
      <trkpt lat="49.96038" lon="1.37993">
        <ele>119</ele>
        <time>2011-06-10T14:48:16.000Z</time>
      </trkpt>
      <trkpt lat="49.96044" lon="1.37991">
        <ele>116</ele>
        <time>2011-06-10T14:48:23.000Z</time>
      </trkpt>
      <trkpt lat="49.96047" lon="1.37997">
        <ele>120</ele>
        <time>2011-06-10T14:48:33.000Z</time>
      </trkpt>
      <trkpt lat="49.96052" lon="1.3801">
        <ele>122</ele>
        <time>2011-06-10T14:48:59.000Z</time>
      </trkpt>
      <trkpt lat="49.96062" lon="1.38021">
        <ele>120</ele>
        <time>2011-06-10T14:49:12.000Z</time>
      </trkpt>
      <trkpt lat="49.96077" lon="1.38035">
        <ele>125</ele>
        <time>2011-06-10T14:49:32.000Z</time>
      </trkpt>
      <trkpt lat="49.96093" lon="1.38068">
        <ele>113</ele>
        <time>2011-06-10T14:50:08.000Z</time>
      </trkpt>
      <trkpt lat="49.96098" lon="1.38077">
        <ele>120</ele>
        <time>2011-06-10T14:50:21.000Z</time>
      </trkpt>
      <trkpt lat="49.96138" lon="1.3811">
        <ele>111</ele>
        <time>2011-06-10T14:51:09.000Z</time>
      </trkpt>
      <trkpt lat="49.96139" lon="1.38111">
        <ele>111</ele>
        <time>2011-06-10T14:51:10.000Z</time>
      </trkpt>
      <trkpt lat="49.96151" lon="1.38117">
        <ele>116</ele>
        <time>2011-06-10T14:51:19.000Z</time>
      </trkpt>
      <trkpt lat="49.96157" lon="1.38117">
        <ele>122</ele>
        <time>2011-06-10T14:51:29.000Z</time>
      </trkpt>
      <trkpt lat="49.96161" lon="1.38123">
        <ele>126</ele>
        <time>2011-06-10T14:51:41.000Z</time>
      </trkpt>
      <trkpt lat="49.96173" lon="1.38136">
        <ele>119</ele>
        <time>2011-06-10T14:52:02.000Z</time>
      </trkpt>
      <trkpt lat="49.96184" lon="1.38139">
        <ele>115</ele>
        <time>2011-06-10T14:52:22.000Z</time>
      </trkpt>
      <trkpt lat="49.96192" lon="1.3813">
        <ele>133</ele>
        <time>2011-06-10T14:52:37.000Z</time>
      </trkpt>
      <trkpt lat="49.96197" lon="1.38128">
        <ele>146</ele>
        <time>2011-06-10T14:52:46.000Z</time>
      </trkpt>
      <trkpt lat="49.962" lon="1.38122">
        <ele>132</ele>
        <time>2011-06-10T14:53:05.000Z</time>
      </trkpt>
      <trkpt lat="49.96212" lon="1.38101">
        <ele>130</ele>
        <time>2011-06-10T14:53:27.000Z</time>
      </trkpt>
      <trkpt lat="49.96216" lon="1.38093">
        <ele>131</ele>
        <time>2011-06-10T14:53:35.000Z</time>
      </trkpt>
      <trkpt lat="49.96231" lon="1.38065">
        <ele>130</ele>
        <time>2011-06-10T14:54:01.000Z</time>
      </trkpt>
      <trkpt lat="49.96234" lon="1.38058">
        <ele>130</ele>
        <time>2011-06-10T14:54:08.000Z</time>
      </trkpt>
      <trkpt lat="49.96241" lon="1.38044">
        <ele>132</ele>
        <time>2011-06-10T14:54:22.000Z</time>
      </trkpt>
      <trkpt lat="49.96244" lon="1.38037">
        <ele>131</ele>
        <time>2011-06-10T14:54:27.000Z</time>
      </trkpt>
      <trkpt lat="49.96248" lon="1.3803">
        <ele>132</ele>
        <time>2011-06-10T14:54:32.000Z</time>
      </trkpt>
      <trkpt lat="49.96263" lon="1.38003">
        <ele>133</ele>
        <time>2011-06-10T14:54:54.000Z</time>
      </trkpt>
      <trkpt lat="49.96269" lon="1.37993">
        <ele>135</ele>
        <time>2011-06-10T14:55:02.000Z</time>
      </trkpt>
      <trkpt lat="49.96273" lon="1.37983">
        <ele>133</ele>
        <time>2011-06-10T14:55:13.000Z</time>
      </trkpt>
      <trkpt lat="49.96287" lon="1.37934">
        <ele>129</ele>
        <time>2011-06-10T14:55:50.000Z</time>
      </trkpt>
      <trkpt lat="49.96295" lon="1.37881">
        <ele>131</ele>
        <time>2011-06-10T14:56:27.000Z</time>
      </trkpt>
      <trkpt lat="49.96297" lon="1.37878">
        <ele>118</ele>
        <time>2011-06-10T14:57:01.000Z</time>
      </trkpt>
      <trkpt lat="49.96304" lon="1.37879">
        <ele>126</ele>
        <time>2011-06-10T14:57:18.000Z</time>
      </trkpt>
      <trkpt lat="49.9631" lon="1.37871">
        <ele>125</ele>
        <time>2011-06-10T14:57:39.000Z</time>
      </trkpt>
      <trkpt lat="49.96319" lon="1.37868">
        <ele>121</ele>
        <time>2011-06-10T14:57:52.000Z</time>
      </trkpt>
      <trkpt lat="49.9633" lon="1.37866">
        <ele>120</ele>
        <time>2011-06-10T14:58:06.000Z</time>
      </trkpt>
      <trkpt lat="49.96338" lon="1.37865">
        <ele>115</ele>
        <time>2011-06-10T14:58:18.000Z</time>
      </trkpt>
      <trkpt lat="49.9636" lon="1.3783">
        <ele>121</ele>
        <time>2011-06-10T14:58:53.000Z</time>
      </trkpt>
      <trkpt lat="49.96371" lon="1.37813">
        <ele>121</ele>
        <time>2011-06-10T14:59:07.000Z</time>
      </trkpt>
      <trkpt lat="49.96375" lon="1.37807">
        <ele>122</ele>
        <time>2011-06-10T14:59:11.000Z</time>
      </trkpt>
      <trkpt lat="49.96394" lon="1.37771">
        <ele>113</ele>
        <time>2011-06-10T14:59:39.000Z</time>
      </trkpt>
      <trkpt lat="49.96415" lon="1.37737">
        <ele>119</ele>
        <time>2011-06-10T15:00:10.000Z</time>
      </trkpt>
      <trkpt lat="49.96422" lon="1.37717">
        <ele>121</ele>
        <time>2011-06-10T15:00:23.000Z</time>
      </trkpt>
      <trkpt lat="49.96428" lon="1.37708">
        <ele>121</ele>
        <time>2011-06-10T15:00:31.000Z</time>
      </trkpt>
      <trkpt lat="49.96445" lon="1.37675">
        <ele>123</ele>
        <time>2011-06-10T15:00:54.000Z</time>
      </trkpt>
      <trkpt lat="49.96455" lon="1.37657">
        <ele>124</ele>
        <time>2011-06-10T15:01:11.000Z</time>
      </trkpt>
      <trkpt lat="49.96459" lon="1.37648">
        <ele>125</ele>
        <time>2011-06-10T15:01:18.000Z</time>
      </trkpt>
      <trkpt lat="49.96469" lon="1.37637">
        <ele>125</ele>
        <time>2011-06-10T15:01:39.000Z</time>
      </trkpt>
      <trkpt lat="49.96473" lon="1.37632">
        <ele>124</ele>
        <time>2011-06-10T15:01:47.000Z</time>
      </trkpt>
      <trkpt lat="49.9648" lon="1.37619">
        <ele>124</ele>
        <time>2011-06-10T15:02:01.000Z</time>
      </trkpt>
      <trkpt lat="49.9649" lon="1.37606">
        <ele>123</ele>
        <time>2011-06-10T15:02:13.000Z</time>
      </trkpt>
      <trkpt lat="49.96497" lon="1.37592">
        <ele>118</ele>
        <time>2011-06-10T15:02:25.000Z</time>
      </trkpt>
      <trkpt lat="49.96502" lon="1.37585">
        <ele>116</ele>
        <time>2011-06-10T15:02:32.000Z</time>
      </trkpt>
      <trkpt lat="49.96515" lon="1.37566">
        <ele>122</ele>
        <time>2011-06-10T15:03:01.000Z</time>
      </trkpt>
      <trkpt lat="49.96522" lon="1.37572">
        <ele>120</ele>
        <time>2011-06-10T15:03:14.000Z</time>
      </trkpt>
      <trkpt lat="49.96529" lon="1.37572">
        <ele>119</ele>
        <time>2011-06-10T15:03:24.000Z</time>
      </trkpt>
      <trkpt lat="49.96529" lon="1.37564">
        <ele>126</ele>
        <time>2011-06-10T15:03:52.000Z</time>
      </trkpt>
      <trkpt lat="49.96548" lon="1.37563">
        <ele>116</ele>
        <time>2011-06-10T15:04:13.000Z</time>
      </trkpt>
      <trkpt lat="49.96564" lon="1.37559">
        <ele>113</ele>
        <time>2011-06-10T15:04:29.000Z</time>
      </trkpt>
      <trkpt lat="49.96579" lon="1.37548">
        <ele>108</ele>
        <time>2011-06-10T15:04:44.000Z</time>
      </trkpt>
      <trkpt lat="49.96602" lon="1.37529">
        <ele>102</ele>
        <time>2011-06-10T15:05:13.000Z</time>
      </trkpt>
      <trkpt lat="49.96616" lon="1.37524">
        <ele>110</ele>
        <time>2011-06-10T15:05:23.000Z</time>
      </trkpt>
      <trkpt lat="49.96637" lon="1.37528">
        <ele>115</ele>
        <time>2011-06-10T15:05:40.000Z</time>
      </trkpt>
      <trkpt lat="49.96672" lon="1.3754">
        <ele>131</ele>
        <time>2011-06-10T15:06:24.000Z</time>
      </trkpt>
      <trkpt lat="49.96679" lon="1.3754">
        <ele>117</ele>
        <time>2011-06-10T15:06:44.000Z</time>
      </trkpt>
      <trkpt lat="49.96687" lon="1.37543">
        <ele>101</ele>
        <time>2011-06-10T15:07:09.000Z</time>
      </trkpt>
      <trkpt lat="49.96702" lon="1.37545">
        <ele>105</ele>
        <time>2011-06-10T15:07:30.000Z</time>
      </trkpt>
      <trkpt lat="49.96713" lon="1.37553">
        <ele>108</ele>
        <time>2011-06-10T15:07:43.000Z</time>
      </trkpt>
      <trkpt lat="49.96719" lon="1.37558">
        <ele>101</ele>
        <time>2011-06-10T15:07:57.000Z</time>
      </trkpt>
      <trkpt lat="49.96726" lon="1.37568">
        <ele>100</ele>
        <time>2011-06-10T15:08:16.000Z</time>
      </trkpt>
      <trkpt lat="49.96735" lon="1.37573">
        <ele>110</ele>
        <time>2011-06-10T15:08:27.000Z</time>
      </trkpt>
      <trkpt lat="49.9674" lon="1.37575">
        <ele>110</ele>
        <time>2011-06-10T15:08:36.000Z</time>
      </trkpt>
      <trkpt lat="49.9675" lon="1.37586">
        <ele>106</ele>
        <time>2011-06-10T15:08:52.000Z</time>
      </trkpt>
      <trkpt lat="49.96754" lon="1.3759">
        <ele>99</ele>
        <time>2011-06-10T15:09:09.000Z</time>
      </trkpt>
      <trkpt lat="49.96779" lon="1.37596">
        <ele>89</ele>
        <time>2011-06-10T15:09:34.000Z</time>
      </trkpt>
      <trkpt lat="49.96785" lon="1.37597">
        <ele>88</ele>
        <time>2011-06-10T15:09:40.000Z</time>
      </trkpt>
      <trkpt lat="49.96803" lon="1.37599">
        <ele>86</ele>
        <time>2011-06-10T15:10:06.000Z</time>
      </trkpt>
      <trkpt lat="49.96825" lon="1.37589">
        <ele>89</ele>
        <time>2011-06-10T15:10:25.000Z</time>
      </trkpt>
      <trkpt lat="49.96838" lon="1.37584">
        <ele>83</ele>
        <time>2011-06-10T15:10:42.000Z</time>
      </trkpt>
      <trkpt lat="49.96845" lon="1.3758">
        <ele>75</ele>
        <time>2011-06-10T15:10:50.000Z</time>
      </trkpt>
      <trkpt lat="49.96859" lon="1.37573">
        <ele>76</ele>
        <time>2011-06-10T15:11:01.000Z</time>
      </trkpt>
      <trkpt lat="49.96871" lon="1.37572">
        <ele>64</ele>
        <time>2011-06-10T15:11:46.000Z</time>
      </trkpt>
      <trkpt lat="49.96882" lon="1.37569">
        <ele>74</ele>
        <time>2011-06-10T15:12:05.000Z</time>
      </trkpt>
      <trkpt lat="49.96896" lon="1.37564">
        <ele>79</ele>
        <time>2011-06-10T15:12:24.000Z</time>
      </trkpt>
      <trkpt lat="49.96933" lon="1.37532">
        <ele>74</ele>
        <time>2011-06-10T15:13:14.000Z</time>
      </trkpt>
      <trkpt lat="49.96951" lon="1.37525">
        <ele>72</ele>
        <time>2011-06-10T15:13:40.000Z</time>
      </trkpt>
      <trkpt lat="49.96965" lon="1.3752">
        <ele>77</ele>
        <time>2011-06-10T15:13:52.000Z</time>
      </trkpt>
      <trkpt lat="49.96981" lon="1.37515">
        <ele>82</ele>
        <time>2011-06-10T15:14:05.000Z</time>
      </trkpt>
      <trkpt lat="49.96999" lon="1.37508">
        <ele>82</ele>
        <time>2011-06-10T15:14:24.000Z</time>
      </trkpt>
      <trkpt lat="49.96999" lon="1.375">
        <ele>68</ele>
        <time>2011-06-10T15:14:31.000Z</time>
      </trkpt>
      <trkpt lat="49.97022" lon="1.37494">
        <ele>65</ele>
        <time>2011-06-10T15:16:02.000Z</time>
      </trkpt>
      <trkpt lat="49.97027" lon="1.37492">
        <ele>66</ele>
        <time>2011-06-10T15:16:08.000Z</time>
      </trkpt>
      <trkpt lat="49.97032" lon="1.37488">
        <ele>63</ele>
        <time>2011-06-10T15:16:17.000Z</time>
      </trkpt>
      <trkpt lat="49.97037" lon="1.37484">
        <ele>56</ele>
        <time>2011-06-10T15:16:25.000Z</time>
      </trkpt>
      <trkpt lat="49.97081" lon="1.37466">
        <ele>58</ele>
        <time>2011-06-10T15:17:01.000Z</time>
      </trkpt>
      <trkpt lat="49.97083" lon="1.37466">
        <ele>58</ele>
        <time>2011-06-10T15:17:02.000Z</time>
      </trkpt>
      <trkpt lat="49.97086" lon="1.37462">
        <ele>57</ele>
        <time>2011-06-10T15:17:07.000Z</time>
      </trkpt>
      <trkpt lat="49.97092" lon="1.37459">
        <ele>56</ele>
        <time>2011-06-10T15:17:13.000Z</time>
      </trkpt>
      <trkpt lat="49.97104" lon="1.37457">
        <ele>60</ele>
        <time>2011-06-10T15:17:28.000Z</time>
      </trkpt>
      <trkpt lat="49.97107" lon="1.3745">
        <ele>56</ele>
        <time>2011-06-10T15:17:55.000Z</time>
      </trkpt>
      <trkpt lat="49.97126" lon="1.37444">
        <ele>63</ele>
        <time>2011-06-10T15:18:16.000Z</time>
      </trkpt>
      <trkpt lat="49.97135" lon="1.37441">
        <ele>60</ele>
        <time>2011-06-10T15:18:27.000Z</time>
      </trkpt>
      <trkpt lat="49.97146" lon="1.37434">
        <ele>59</ele>
        <time>2011-06-10T15:18:36.000Z</time>
      </trkpt>
      <trkpt lat="49.97164" lon="1.37421">
        <ele>61</ele>
        <time>2011-06-10T15:18:55.000Z</time>
      </trkpt>
      <trkpt lat="49.97207" lon="1.37396">
        <ele>54</ele>
        <time>2011-06-10T15:19:42.000Z</time>
      </trkpt>
      <trkpt lat="49.97208" lon="1.37396">
        <ele>54</ele>
        <time>2011-06-10T15:19:43.000Z</time>
      </trkpt>
      <trkpt lat="49.97213" lon="1.37393">
        <ele>53</ele>
        <time>2011-06-10T15:19:50.000Z</time>
      </trkpt>
      <trkpt lat="49.97234" lon="1.37376">
        <ele>52</ele>
        <time>2011-06-10T15:20:12.000Z</time>
      </trkpt>
      <trkpt lat="49.97243" lon="1.37368">
        <ele>54</ele>
        <time>2011-06-10T15:20:25.000Z</time>
      </trkpt>
      <trkpt lat="49.97284" lon="1.37337">
        <ele>56</ele>
        <time>2011-06-10T15:21:00.000Z</time>
      </trkpt>
      <trkpt lat="49.97285" lon="1.37336">
        <ele>56</ele>
        <time>2011-06-10T15:21:01.000Z</time>
      </trkpt>
      <trkpt lat="49.97298" lon="1.37324">
        <ele>56</ele>
        <time>2011-06-10T15:21:12.000Z</time>
      </trkpt>
      <trkpt lat="49.97312" lon="1.37311">
        <ele>53</ele>
        <time>2011-06-10T15:21:32.000Z</time>
      </trkpt>
      <trkpt lat="49.97318" lon="1.37305">
        <ele>50</ele>
        <time>2011-06-10T15:21:38.000Z</time>
      </trkpt>
      <trkpt lat="49.97333" lon="1.37288">
        <ele>45</ele>
        <time>2011-06-10T15:21:56.000Z</time>
      </trkpt>
      <trkpt lat="49.97374" lon="1.37257">
        <ele>47</ele>
        <time>2011-06-10T15:22:31.000Z</time>
      </trkpt>
      <trkpt lat="49.97375" lon="1.37256">
        <ele>47</ele>
        <time>2011-06-10T15:22:32.000Z</time>
      </trkpt>
      <trkpt lat="49.97385" lon="1.3725">
        <ele>48</ele>
        <time>2011-06-10T15:22:42.000Z</time>
      </trkpt>
      <trkpt lat="49.97406" lon="1.37239">
        <ele>49</ele>
        <time>2011-06-10T15:23:30.000Z</time>
      </trkpt>
      <trkpt lat="49.97414" lon="1.37228">
        <ele>47</ele>
        <time>2011-06-10T15:23:56.000Z</time>
      </trkpt>
      <trkpt lat="49.97452" lon="1.37189">
        <ele>49</ele>
        <time>2011-06-10T15:24:39.000Z</time>
      </trkpt>
      <trkpt lat="49.97453" lon="1.37188">
        <ele>49</ele>
        <time>2011-06-10T15:24:40.000Z</time>
      </trkpt>
      <trkpt lat="49.97488" lon="1.37143">
        <ele>46</ele>
        <time>2011-06-10T15:25:21.000Z</time>
      </trkpt>
      <trkpt lat="49.97488" lon="1.37142">
        <ele>46</ele>
        <time>2011-06-10T15:25:22.000Z</time>
      </trkpt>
      <trkpt lat="49.97489" lon="1.37141">
        <ele>46</ele>
        <time>2011-06-10T15:25:23.000Z</time>
      </trkpt>
      <trkpt lat="49.97493" lon="1.37136">
        <ele>45</ele>
        <time>2011-06-10T15:25:27.000Z</time>
      </trkpt>
      <trkpt lat="49.97518" lon="1.37106">
        <ele>48</ele>
        <time>2011-06-10T15:25:52.000Z</time>
      </trkpt>
      <trkpt lat="49.97523" lon="1.37102">
        <ele>49</ele>
        <time>2011-06-10T15:25:57.000Z</time>
      </trkpt>
      <trkpt lat="49.97528" lon="1.37104">
        <ele>51</ele>
        <time>2011-06-10T15:26:14.000Z</time>
      </trkpt>
      <trkpt lat="49.97527" lon="1.37115">
        <ele>49</ele>
        <time>2011-06-10T15:26:20.000Z</time>
      </trkpt>
      <trkpt lat="49.97525" lon="1.37132">
        <ele>45</ele>
        <time>2011-06-10T15:26:32.000Z</time>
      </trkpt>
      <trkpt lat="49.97527" lon="1.37155">
        <ele>42</ele>
        <time>2011-06-10T15:26:47.000Z</time>
      </trkpt>
      <trkpt lat="49.97528" lon="1.37164">
        <ele>42</ele>
        <time>2011-06-10T15:26:53.000Z</time>
      </trkpt>
      <trkpt lat="49.97538" lon="1.3719">
        <ele>41</ele>
        <time>2011-06-10T15:27:12.000Z</time>
      </trkpt>
      <trkpt lat="49.97561" lon="1.37228">
        <ele>47</ele>
        <time>2011-06-10T15:27:39.000Z</time>
      </trkpt>
      <trkpt lat="49.97566" lon="1.37229">
        <ele>47</ele>
        <time>2011-06-10T15:27:43.000Z</time>
      </trkpt>
      <trkpt lat="49.97598" lon="1.37209">
        <ele>37</ele>
        <time>2011-06-10T15:28:13.000Z</time>
      </trkpt>
      <trkpt lat="49.97641" lon="1.37185">
        <ele>41</ele>
        <time>2011-06-10T15:28:49.000Z</time>
      </trkpt>
      <trkpt lat="49.97643" lon="1.37184">
        <ele>41</ele>
        <time>2011-06-10T15:28:50.000Z</time>
      </trkpt>
      <trkpt lat="49.97647" lon="1.3718">
        <ele>41</ele>
        <time>2011-06-10T15:28:55.000Z</time>
      </trkpt>
      <trkpt lat="49.97655" lon="1.37175">
        <ele>41</ele>
        <time>2011-06-10T15:29:02.000Z</time>
      </trkpt>
      <trkpt lat="49.97678" lon="1.37158">
        <ele>41</ele>
        <time>2011-06-10T15:29:24.000Z</time>
      </trkpt>
      <trkpt lat="49.97683" lon="1.37153">
        <ele>40</ele>
        <time>2011-06-10T15:29:34.000Z</time>
      </trkpt>
      <trkpt lat="49.97702" lon="1.3714">
        <ele>39</ele>
        <time>2011-06-10T15:29:57.000Z</time>
      </trkpt>
      <trkpt lat="49.97707" lon="1.37139">
        <ele>39</ele>
        <time>2011-06-10T15:30:09.000Z</time>
      </trkpt>
      <trkpt lat="49.97735" lon="1.37112">
        <ele>41</ele>
        <time>2011-06-10T15:30:47.000Z</time>
      </trkpt>
      <trkpt lat="49.97739" lon="1.37108">
        <ele>43</ele>
        <time>2011-06-10T15:30:53.000Z</time>
      </trkpt>
      <trkpt lat="49.97766" lon="1.37076">
        <ele>44</ele>
        <time>2011-06-10T15:31:23.000Z</time>
      </trkpt>
      <trkpt lat="49.97775" lon="1.37064">
        <ele>45</ele>
        <time>2011-06-10T15:31:34.000Z</time>
      </trkpt>
      <trkpt lat="49.97783" lon="1.37053">
        <ele>45</ele>
        <time>2011-06-10T15:31:45.000Z</time>
      </trkpt>
      <trkpt lat="49.9779" lon="1.37045">
        <ele>43</ele>
        <time>2011-06-10T15:31:54.000Z</time>
      </trkpt>
      <trkpt lat="49.97811" lon="1.3702">
        <ele>39</ele>
        <time>2011-06-10T15:32:17.000Z</time>
      </trkpt>
      <trkpt lat="49.97812" lon="1.37007">
        <ele>37</ele>
        <time>2011-06-10T15:32:26.000Z</time>
      </trkpt>
      <trkpt lat="49.97807" lon="1.37004">
        <ele>39</ele>
        <time>2011-06-10T15:32:55.000Z</time>
      </trkpt>
      <trkpt lat="49.97807" lon="1.37003">
        <ele>38</ele>
        <time>2011-06-10T15:33:20.000Z</time>
      </trkpt>
    </trkseg>
  </trk>
</gpx>